<?xml version="1.0" encoding="UTF-8" standalone="no" ?>
<gpx xmlns="http://www.topografix.com/GPX/1/1" xmlns:xsi="http://www.w3.org/2001/XMLSchema-instance" xsi:schemaLocation="http://www.topografix.com/GPX/1/1 http://www.topografix.com/GPX/1/1/gpx.xsd" version="1.1" creator="VisuGPX - https://www.visugpx.com">
  <metadata>
    <name>Le Trehkopf à partir d\'Oderen</name>
    <desc><![CDATA[Trace AlpineQuest 03/10/2013 10:36:03]]></desc>
  </metadata>
  <trk>
    <name><![CDATA[treh]]></name>
    <trkseg>
      <trkpt lat="47.91049" lon="6.97582">
        <ele>465</ele>
        <time>2013-10-03T08:36:03Z</time>
      </trkpt>
      <trkpt lat="47.91046" lon="6.97569">
        <ele>465</ele>
        <time>2013-10-03T08:37:20Z</time>
      </trkpt>
      <trkpt lat="47.91037" lon="6.97543">
        <ele>465</ele>
        <time>2013-10-03T08:37:44Z</time>
      </trkpt>
      <trkpt lat="47.91032" lon="6.97515">
        <ele>465</ele>
        <time>2013-10-03T08:38:01Z</time>
      </trkpt>
      <trkpt lat="47.91051" lon="6.97514">
        <ele>465</ele>
        <time>2013-10-03T08:38:14Z</time>
      </trkpt>
      <trkpt lat="47.9106" lon="6.97512">
        <ele>465</ele>
        <time>2013-10-03T08:38:21Z</time>
      </trkpt>
      <trkpt lat="47.91069" lon="6.97515">
        <ele>466</ele>
        <time>2013-10-03T08:38:28Z</time>
      </trkpt>
      <trkpt lat="47.91078" lon="6.97508">
        <ele>466</ele>
        <time>2013-10-03T08:38:37Z</time>
      </trkpt>
      <trkpt lat="47.91096" lon="6.97501">
        <ele>467</ele>
        <time>2013-10-03T08:38:52Z</time>
      </trkpt>
      <trkpt lat="47.91105" lon="6.97506">
        <ele>467</ele>
        <time>2013-10-03T08:39:04Z</time>
      </trkpt>
      <trkpt lat="47.91124" lon="6.97495">
        <ele>466</ele>
        <time>2013-10-03T08:39:21Z</time>
      </trkpt>
      <trkpt lat="47.91133" lon="6.97492">
        <ele>466</ele>
        <time>2013-10-03T08:39:37Z</time>
      </trkpt>
      <trkpt lat="47.91142" lon="6.97493">
        <ele>466</ele>
        <time>2013-10-03T08:39:45Z</time>
      </trkpt>
      <trkpt lat="47.91148" lon="6.97505">
        <ele>467</ele>
        <time>2013-10-03T08:39:56Z</time>
      </trkpt>
      <trkpt lat="47.91167" lon="6.97499">
        <ele>467</ele>
        <time>2013-10-03T08:40:07Z</time>
      </trkpt>
      <trkpt lat="47.91178" lon="6.97493">
        <ele>467</ele>
        <time>2013-10-03T08:40:10Z</time>
      </trkpt>
      <trkpt lat="47.91195" lon="6.9748">
        <ele>467</ele>
        <time>2013-10-03T08:40:21Z</time>
      </trkpt>
      <trkpt lat="47.91206" lon="6.97477">
        <ele>467</ele>
        <time>2013-10-03T08:40:28Z</time>
      </trkpt>
      <trkpt lat="47.91225" lon="6.97468">
        <ele>466</ele>
        <time>2013-10-03T08:40:45Z</time>
      </trkpt>
      <trkpt lat="47.91234" lon="6.97465">
        <ele>466</ele>
        <time>2013-10-03T08:40:50Z</time>
      </trkpt>
      <trkpt lat="47.91243" lon="6.97463">
        <ele>466</ele>
        <time>2013-10-03T08:40:57Z</time>
      </trkpt>
      <trkpt lat="47.91262" lon="6.97457">
        <ele>467</ele>
        <time>2013-10-03T08:41:11Z</time>
      </trkpt>
      <trkpt lat="47.91271" lon="6.97458">
        <ele>467</ele>
        <time>2013-10-03T08:41:21Z</time>
      </trkpt>
      <trkpt lat="47.91281" lon="6.97457">
        <ele>467</ele>
        <time>2013-10-03T08:41:26Z</time>
      </trkpt>
      <trkpt lat="47.91292" lon="6.97454">
        <ele>467</ele>
        <time>2013-10-03T08:41:31Z</time>
      </trkpt>
      <trkpt lat="47.91301" lon="6.97451">
        <ele>467</ele>
        <time>2013-10-03T08:41:38Z</time>
      </trkpt>
      <trkpt lat="47.91319" lon="6.97447">
        <ele>467</ele>
        <time>2013-10-03T08:41:53Z</time>
      </trkpt>
      <trkpt lat="47.91338" lon="6.97446">
        <ele>466</ele>
        <time>2013-10-03T08:42:07Z</time>
      </trkpt>
      <trkpt lat="47.91346" lon="6.97441">
        <ele>466</ele>
        <time>2013-10-03T08:42:14Z</time>
      </trkpt>
      <trkpt lat="47.91352" lon="6.97431">
        <ele>466</ele>
        <time>2013-10-03T08:42:24Z</time>
      </trkpt>
      <trkpt lat="47.9137" lon="6.97421">
        <ele>466</ele>
        <time>2013-10-03T08:42:40Z</time>
      </trkpt>
      <trkpt lat="47.9139" lon="6.97426">
        <ele>466</ele>
        <time>2013-10-03T08:42:54Z</time>
      </trkpt>
      <trkpt lat="47.91399" lon="6.97427">
        <ele>466</ele>
        <time>2013-10-03T08:43:03Z</time>
      </trkpt>
      <trkpt lat="47.91409" lon="6.97426">
        <ele>466</ele>
        <time>2013-10-03T08:43:08Z</time>
      </trkpt>
      <trkpt lat="47.91418" lon="6.97428">
        <ele>466</ele>
        <time>2013-10-03T08:43:15Z</time>
      </trkpt>
      <trkpt lat="47.91436" lon="6.97419">
        <ele>467</ele>
        <time>2013-10-03T08:43:31Z</time>
      </trkpt>
      <trkpt lat="47.91454" lon="6.9742">
        <ele>468</ele>
        <time>2013-10-03T08:43:44Z</time>
      </trkpt>
      <trkpt lat="47.91463" lon="6.97418">
        <ele>468</ele>
        <time>2013-10-03T08:43:54Z</time>
      </trkpt>
      <trkpt lat="47.91482" lon="6.97418">
        <ele>468</ele>
        <time>2013-10-03T08:44:09Z</time>
      </trkpt>
      <trkpt lat="47.91492" lon="6.97419">
        <ele>468</ele>
        <time>2013-10-03T08:44:20Z</time>
      </trkpt>
      <trkpt lat="47.91502" lon="6.97417">
        <ele>468</ele>
        <time>2013-10-03T08:44:30Z</time>
      </trkpt>
      <trkpt lat="47.91509" lon="6.97429">
        <ele>471</ele>
        <time>2013-10-03T08:44:41Z</time>
      </trkpt>
      <trkpt lat="47.91513" lon="6.97441">
        <ele>473</ele>
        <time>2013-10-03T08:44:44Z</time>
      </trkpt>
      <trkpt lat="47.91524" lon="6.97437">
        <ele>473</ele>
        <time>2013-10-03T08:44:49Z</time>
      </trkpt>
      <trkpt lat="47.91544" lon="6.97428">
        <ele>474</ele>
        <time>2013-10-03T08:44:59Z</time>
      </trkpt>
      <trkpt lat="47.91553" lon="6.97433">
        <ele>475</ele>
        <time>2013-10-03T08:45:05Z</time>
      </trkpt>
      <trkpt lat="47.91562" lon="6.97439">
        <ele>475</ele>
        <time>2013-10-03T08:45:15Z</time>
      </trkpt>
      <trkpt lat="47.91581" lon="6.97443">
        <ele>476</ele>
        <time>2013-10-03T08:45:27Z</time>
      </trkpt>
      <trkpt lat="47.9159" lon="6.97442">
        <ele>481</ele>
        <time>2013-10-03T08:45:37Z</time>
      </trkpt>
      <trkpt lat="47.91609" lon="6.97451">
        <ele>484</ele>
        <time>2013-10-03T08:47:44Z</time>
      </trkpt>
      <trkpt lat="47.91642" lon="6.97489">
        <ele>494</ele>
        <time>2013-10-03T08:47:54Z</time>
      </trkpt>
      <trkpt lat="47.91669" lon="6.97482">
        <ele>505</ele>
        <time>2013-10-03T08:48:07Z</time>
      </trkpt>
      <trkpt lat="47.91662" lon="6.97492">
        <ele>501</ele>
        <time>2013-10-03T08:48:13Z</time>
      </trkpt>
      <trkpt lat="47.91653" lon="6.97503">
        <ele>507</ele>
        <time>2013-10-03T08:48:55Z</time>
      </trkpt>
      <trkpt lat="47.91623" lon="6.97546">
        <ele>507</ele>
        <time>2013-10-03T08:49:06Z</time>
      </trkpt>
      <trkpt lat="47.91625" lon="6.97562">
        <ele>509</ele>
        <time>2013-10-03T08:49:16Z</time>
      </trkpt>
      <trkpt lat="47.91616" lon="6.97575">
        <ele>508</ele>
        <time>2013-10-03T08:49:23Z</time>
      </trkpt>
      <trkpt lat="47.91623" lon="6.97585">
        <ele>519</ele>
        <time>2013-10-03T08:55:40Z</time>
      </trkpt>
      <trkpt lat="47.91685" lon="6.97624">
        <ele>552</ele>
        <time>2013-10-03T08:55:51Z</time>
      </trkpt>
      <trkpt lat="47.91695" lon="6.97629">
        <ele>554</ele>
        <time>2013-10-03T08:55:53Z</time>
      </trkpt>
      <trkpt lat="47.91704" lon="6.97634">
        <ele>557</ele>
        <time>2013-10-03T08:55:55Z</time>
      </trkpt>
      <trkpt lat="47.91711" lon="6.97644">
        <ele>559</ele>
        <time>2013-10-03T08:55:59Z</time>
      </trkpt>
      <trkpt lat="47.91704" lon="6.97655">
        <ele>558</ele>
        <time>2013-10-03T08:57:07Z</time>
      </trkpt>
      <trkpt lat="47.9171" lon="6.97665">
        <ele>560</ele>
        <time>2013-10-03T09:00:42Z</time>
      </trkpt>
      <trkpt lat="47.91714" lon="6.97678">
        <ele>567</ele>
        <time>2013-10-03T09:02:01Z</time>
      </trkpt>
      <trkpt lat="47.91742" lon="6.97706">
        <ele>573</ele>
        <time>2013-10-03T09:02:13Z</time>
      </trkpt>
      <trkpt lat="47.91752" lon="6.97716">
        <ele>598</ele>
        <time>2013-10-03T09:02:16Z</time>
      </trkpt>
      <trkpt lat="47.91761" lon="6.97723">
        <ele>599</ele>
        <time>2013-10-03T09:02:18Z</time>
      </trkpt>
      <trkpt lat="47.91772" lon="6.97731">
        <ele>601</ele>
        <time>2013-10-03T09:02:20Z</time>
      </trkpt>
      <trkpt lat="47.91782" lon="6.9774">
        <ele>603</ele>
        <time>2013-10-03T09:02:22Z</time>
      </trkpt>
      <trkpt lat="47.9179" lon="6.97747">
        <ele>606</ele>
        <time>2013-10-03T09:02:24Z</time>
      </trkpt>
      <trkpt lat="47.91801" lon="6.97753">
        <ele>608</ele>
        <time>2013-10-03T09:02:28Z</time>
      </trkpt>
      <trkpt lat="47.91804" lon="6.9774">
        <ele>610</ele>
        <time>2013-10-03T09:02:36Z</time>
      </trkpt>
      <trkpt lat="47.91812" lon="6.97735">
        <ele>612</ele>
        <time>2013-10-03T09:02:45Z</time>
      </trkpt>
      <trkpt lat="47.91817" lon="6.9772">
        <ele>611</ele>
        <time>2013-10-03T09:03:55Z</time>
      </trkpt>
      <trkpt lat="47.91823" lon="6.97709">
        <ele>612</ele>
        <time>2013-10-03T09:03:59Z</time>
      </trkpt>
      <trkpt lat="47.91831" lon="6.977">
        <ele>613</ele>
        <time>2013-10-03T09:04:04Z</time>
      </trkpt>
      <trkpt lat="47.91844" lon="6.97681">
        <ele>634</ele>
        <time>2013-10-03T09:04:15Z</time>
      </trkpt>
      <trkpt lat="47.91841" lon="6.97696">
        <ele>635</ele>
        <time>2013-10-03T09:04:24Z</time>
      </trkpt>
      <trkpt lat="47.91835" lon="6.97706">
        <ele>635</ele>
        <time>2013-10-03T09:04:28Z</time>
      </trkpt>
      <trkpt lat="47.91829" lon="6.9772">
        <ele>613</ele>
        <time>2013-10-03T09:04:33Z</time>
      </trkpt>
      <trkpt lat="47.91833" lon="6.97731">
        <ele>632</ele>
        <time>2013-10-03T09:04:49Z</time>
      </trkpt>
      <trkpt lat="47.91843" lon="6.9774">
        <ele>631</ele>
        <time>2013-10-03T09:04:58Z</time>
      </trkpt>
      <trkpt lat="47.91849" lon="6.97705">
        <ele>636</ele>
        <time>2013-10-03T09:06:32Z</time>
      </trkpt>
      <trkpt lat="47.91852" lon="6.97685">
        <ele>636</ele>
        <time>2013-10-03T09:06:34Z</time>
      </trkpt>
      <trkpt lat="47.91856" lon="6.9767">
        <ele>636</ele>
        <time>2013-10-03T09:06:36Z</time>
      </trkpt>
      <trkpt lat="47.91858" lon="6.97655">
        <ele>635</ele>
        <time>2013-10-03T09:06:39Z</time>
      </trkpt>
      <trkpt lat="47.91862" lon="6.97686">
        <ele>638</ele>
        <time>2013-10-03T09:06:51Z</time>
      </trkpt>
      <trkpt lat="47.91868" lon="6.97712">
        <ele>639</ele>
        <time>2013-10-03T09:07:10Z</time>
      </trkpt>
      <trkpt lat="47.91878" lon="6.97701">
        <ele>642</ele>
        <time>2013-10-03T09:09:40Z</time>
      </trkpt>
      <trkpt lat="47.91884" lon="6.97675">
        <ele>645</ele>
        <time>2013-10-03T09:09:48Z</time>
      </trkpt>
      <trkpt lat="47.91886" lon="6.97658">
        <ele>644</ele>
        <time>2013-10-03T09:11:08Z</time>
      </trkpt>
      <trkpt lat="47.91889" lon="6.97613">
        <ele>640</ele>
        <time>2013-10-03T09:11:10Z</time>
      </trkpt>
      <trkpt lat="47.91891" lon="6.97599">
        <ele>640</ele>
        <time>2013-10-03T09:11:12Z</time>
      </trkpt>
      <trkpt lat="47.9189" lon="6.97584">
        <ele>640</ele>
        <time>2013-10-03T09:11:16Z</time>
      </trkpt>
      <trkpt lat="47.9189" lon="6.9757">
        <ele>624</ele>
        <time>2013-10-03T09:16:22Z</time>
      </trkpt>
      <trkpt lat="47.91898" lon="6.9758">
        <ele>630</ele>
        <time>2013-10-03T09:24:46Z</time>
      </trkpt>
      <trkpt lat="47.919" lon="6.97597">
        <ele>643</ele>
        <time>2013-10-03T09:24:49Z</time>
      </trkpt>
      <trkpt lat="47.91912" lon="6.9761">
        <ele>644</ele>
        <time>2013-10-03T09:25:09Z</time>
      </trkpt>
      <trkpt lat="47.91922" lon="6.97609">
        <ele>663</ele>
        <time>2013-10-03T09:25:20Z</time>
      </trkpt>
      <trkpt lat="47.91939" lon="6.97598">
        <ele>664</ele>
        <time>2013-10-03T09:25:36Z</time>
      </trkpt>
      <trkpt lat="47.91946" lon="6.9759">
        <ele>666</ele>
        <time>2013-10-03T09:25:47Z</time>
      </trkpt>
      <trkpt lat="47.91956" lon="6.97568">
        <ele>652</ele>
        <time>2013-10-03T09:26:00Z</time>
      </trkpt>
      <trkpt lat="47.91974" lon="6.97559">
        <ele>654</ele>
        <time>2013-10-03T09:26:14Z</time>
      </trkpt>
      <trkpt lat="47.91983" lon="6.97559">
        <ele>657</ele>
        <time>2013-10-03T09:26:20Z</time>
      </trkpt>
      <trkpt lat="47.92001" lon="6.9756">
        <ele>672</ele>
        <time>2013-10-03T09:26:41Z</time>
      </trkpt>
      <trkpt lat="47.9201" lon="6.97557">
        <ele>671</ele>
        <time>2013-10-03T09:26:51Z</time>
      </trkpt>
      <trkpt lat="47.92017" lon="6.97547">
        <ele>668</ele>
        <time>2013-10-03T09:26:59Z</time>
      </trkpt>
      <trkpt lat="47.92025" lon="6.97538">
        <ele>667</ele>
        <time>2013-10-03T09:27:07Z</time>
      </trkpt>
      <trkpt lat="47.92043" lon="6.97535">
        <ele>667</ele>
        <time>2013-10-03T09:27:24Z</time>
      </trkpt>
      <trkpt lat="47.92062" lon="6.9753">
        <ele>667</ele>
        <time>2013-10-03T09:27:37Z</time>
      </trkpt>
      <trkpt lat="47.92072" lon="6.97531">
        <ele>667</ele>
        <time>2013-10-03T09:27:51Z</time>
      </trkpt>
      <trkpt lat="47.9209" lon="6.97538">
        <ele>668</ele>
        <time>2013-10-03T09:28:08Z</time>
      </trkpt>
      <trkpt lat="47.92099" lon="6.97542">
        <ele>668</ele>
        <time>2013-10-03T09:28:19Z</time>
      </trkpt>
      <trkpt lat="47.92108" lon="6.97546">
        <ele>668</ele>
        <time>2013-10-03T09:28:25Z</time>
      </trkpt>
      <trkpt lat="47.92126" lon="6.97555">
        <ele>668</ele>
        <time>2013-10-03T09:28:40Z</time>
      </trkpt>
      <trkpt lat="47.92142" lon="6.97568">
        <ele>669</ele>
        <time>2013-10-03T09:29:01Z</time>
      </trkpt>
      <trkpt lat="47.92151" lon="6.97579">
        <ele>670</ele>
        <time>2013-10-03T09:29:24Z</time>
      </trkpt>
      <trkpt lat="47.92188" lon="6.97612">
        <ele>680</ele>
        <time>2013-10-03T09:29:38Z</time>
      </trkpt>
      <trkpt lat="47.92197" lon="6.97614">
        <ele>680</ele>
        <time>2013-10-03T09:29:50Z</time>
      </trkpt>
      <trkpt lat="47.92203" lon="6.97626">
        <ele>681</ele>
        <time>2013-10-03T09:29:59Z</time>
      </trkpt>
      <trkpt lat="47.92213" lon="6.9763">
        <ele>681</ele>
        <time>2013-10-03T09:30:09Z</time>
      </trkpt>
      <trkpt lat="47.9223" lon="6.97643">
        <ele>682</ele>
        <time>2013-10-03T09:30:23Z</time>
      </trkpt>
      <trkpt lat="47.92235" lon="6.97659">
        <ele>684</ele>
        <time>2013-10-03T09:31:02Z</time>
      </trkpt>
      <trkpt lat="47.92253" lon="6.97673">
        <ele>684</ele>
        <time>2013-10-03T09:31:15Z</time>
      </trkpt>
      <trkpt lat="47.92261" lon="6.97678">
        <ele>683</ele>
        <time>2013-10-03T09:31:20Z</time>
      </trkpt>
      <trkpt lat="47.92279" lon="6.97692">
        <ele>680</ele>
        <time>2013-10-03T09:31:36Z</time>
      </trkpt>
      <trkpt lat="47.92288" lon="6.97717">
        <ele>680</ele>
        <time>2013-10-03T09:32:47Z</time>
      </trkpt>
      <trkpt lat="47.92305" lon="6.9773">
        <ele>679</ele>
        <time>2013-10-03T09:32:59Z</time>
      </trkpt>
      <trkpt lat="47.92322" lon="6.97742">
        <ele>679</ele>
        <time>2013-10-03T09:33:14Z</time>
      </trkpt>
      <trkpt lat="47.92341" lon="6.97743">
        <ele>680</ele>
        <time>2013-10-03T09:33:28Z</time>
      </trkpt>
      <trkpt lat="47.9235" lon="6.97748">
        <ele>680</ele>
        <time>2013-10-03T09:33:34Z</time>
      </trkpt>
      <trkpt lat="47.92359" lon="6.97755">
        <ele>682</ele>
        <time>2013-10-03T09:33:46Z</time>
      </trkpt>
      <trkpt lat="47.92365" lon="6.9778">
        <ele>682</ele>
        <time>2013-10-03T09:34:00Z</time>
      </trkpt>
      <trkpt lat="47.92375" lon="6.97787">
        <ele>682</ele>
        <time>2013-10-03T09:34:17Z</time>
      </trkpt>
      <trkpt lat="47.92388" lon="6.97807">
        <ele>683</ele>
        <time>2013-10-03T09:34:27Z</time>
      </trkpt>
      <trkpt lat="47.92396" lon="6.97821">
        <ele>683</ele>
        <time>2013-10-03T09:35:08Z</time>
      </trkpt>
      <trkpt lat="47.92433" lon="6.97842">
        <ele>691</ele>
        <time>2013-10-03T09:35:19Z</time>
      </trkpt>
      <trkpt lat="47.92425" lon="6.97848">
        <ele>690</ele>
        <time>2013-10-03T09:35:38Z</time>
      </trkpt>
      <trkpt lat="47.92415" lon="6.97847">
        <ele>678</ele>
        <time>2013-10-03T09:36:06Z</time>
      </trkpt>
      <trkpt lat="47.92408" lon="6.97836">
        <ele>680</ele>
        <time>2013-10-03T09:36:12Z</time>
      </trkpt>
      <trkpt lat="47.92392" lon="6.97826">
        <ele>683</ele>
        <time>2013-10-03T09:36:28Z</time>
      </trkpt>
      <trkpt lat="47.92396" lon="6.97814">
        <ele>683</ele>
        <time>2013-10-03T09:36:52Z</time>
      </trkpt>
      <trkpt lat="47.92404" lon="6.97807">
        <ele>684</ele>
        <time>2013-10-03T09:37:02Z</time>
      </trkpt>
      <trkpt lat="47.92434" lon="6.97807">
        <ele>698</ele>
        <time>2013-10-03T09:37:16Z</time>
      </trkpt>
      <trkpt lat="47.92443" lon="6.97812">
        <ele>700</ele>
        <time>2013-10-03T09:37:24Z</time>
      </trkpt>
      <trkpt lat="47.92452" lon="6.97828">
        <ele>701</ele>
        <time>2013-10-03T09:37:42Z</time>
      </trkpt>
      <trkpt lat="47.92447" lon="6.97817">
        <ele>700</ele>
        <time>2013-10-03T09:38:43Z</time>
      </trkpt>
      <trkpt lat="47.92454" lon="6.97806">
        <ele>702</ele>
        <time>2013-10-03T09:38:53Z</time>
      </trkpt>
      <trkpt lat="47.9246" lon="6.97796">
        <ele>704</ele>
        <time>2013-10-03T09:39:02Z</time>
      </trkpt>
      <trkpt lat="47.92458" lon="6.9781">
        <ele>703</ele>
        <time>2013-10-03T09:39:32Z</time>
      </trkpt>
      <trkpt lat="47.92451" lon="6.97819">
        <ele>701</ele>
        <time>2013-10-03T09:39:44Z</time>
      </trkpt>
      <trkpt lat="47.92448" lon="6.97844">
        <ele>695</ele>
        <time>2013-10-03T09:39:57Z</time>
      </trkpt>
      <trkpt lat="47.92453" lon="6.97857">
        <ele>695</ele>
        <time>2013-10-03T09:40:22Z</time>
      </trkpt>
      <trkpt lat="47.92459" lon="6.97883">
        <ele>694</ele>
        <time>2013-10-03T09:40:38Z</time>
      </trkpt>
      <trkpt lat="47.92469" lon="6.97885">
        <ele>696</ele>
        <time>2013-10-03T09:41:02Z</time>
      </trkpt>
      <trkpt lat="47.92491" lon="6.97915">
        <ele>702</ele>
        <time>2013-10-03T09:41:19Z</time>
      </trkpt>
      <trkpt lat="47.925" lon="6.97942">
        <ele>708</ele>
        <time>2013-10-03T09:41:42Z</time>
      </trkpt>
      <trkpt lat="47.92513" lon="6.97964">
        <ele>707</ele>
        <time>2013-10-03T09:42:01Z</time>
      </trkpt>
      <trkpt lat="47.92523" lon="6.97971">
        <ele>708</ele>
        <time>2013-10-03T09:42:11Z</time>
      </trkpt>
      <trkpt lat="47.92552" lon="6.97982">
        <ele>713</ele>
        <time>2013-10-03T09:42:22Z</time>
      </trkpt>
      <trkpt lat="47.92561" lon="6.97983">
        <ele>715</ele>
        <time>2013-10-03T09:42:45Z</time>
      </trkpt>
      <trkpt lat="47.92578" lon="6.97997">
        <ele>718</ele>
        <time>2013-10-03T09:43:54Z</time>
      </trkpt>
      <trkpt lat="47.92602" lon="6.9801">
        <ele>725</ele>
        <time>2013-10-03T09:43:56Z</time>
      </trkpt>
      <trkpt lat="47.92612" lon="6.98016">
        <ele>728</ele>
        <time>2013-10-03T09:43:58Z</time>
      </trkpt>
      <trkpt lat="47.92621" lon="6.98022">
        <ele>730</ele>
        <time>2013-10-03T09:44:02Z</time>
      </trkpt>
      <trkpt lat="47.92622" lon="6.98035">
        <ele>729</ele>
        <time>2013-10-03T09:44:13Z</time>
      </trkpt>
      <trkpt lat="47.92625" lon="6.9805">
        <ele>728</ele>
        <time>2013-10-03T09:44:24Z</time>
      </trkpt>
      <trkpt lat="47.92638" lon="6.98067">
        <ele>730</ele>
        <time>2013-10-03T09:44:48Z</time>
      </trkpt>
      <trkpt lat="47.92648" lon="6.98066">
        <ele>732</ele>
        <time>2013-10-03T09:47:54Z</time>
      </trkpt>
      <trkpt lat="47.92667" lon="6.98078">
        <ele>744</ele>
        <time>2013-10-03T09:48:00Z</time>
      </trkpt>
      <trkpt lat="47.92676" lon="6.98081">
        <ele>748</ele>
        <time>2013-10-03T09:48:05Z</time>
      </trkpt>
      <trkpt lat="47.92668" lon="6.98056">
        <ele>755</ele>
        <time>2013-10-03T09:48:24Z</time>
      </trkpt>
      <trkpt lat="47.92666" lon="6.98041">
        <ele>736</ele>
        <time>2013-10-03T09:48:31Z</time>
      </trkpt>
      <trkpt lat="47.92659" lon="6.98033">
        <ele>736</ele>
        <time>2013-10-03T09:48:41Z</time>
      </trkpt>
      <trkpt lat="47.92663" lon="6.98017">
        <ele>742</ele>
        <time>2013-10-03T09:49:59Z</time>
      </trkpt>
      <trkpt lat="47.92661" lon="6.98001">
        <ele>749</ele>
        <time>2013-10-03T09:50:03Z</time>
      </trkpt>
      <trkpt lat="47.9267" lon="6.97999">
        <ele>758</ele>
        <time>2013-10-03T09:50:10Z</time>
      </trkpt>
      <trkpt lat="47.92678" lon="6.98007">
        <ele>759</ele>
        <time>2013-10-03T09:50:19Z</time>
      </trkpt>
      <trkpt lat="47.92691" lon="6.98026">
        <ele>762</ele>
        <time>2013-10-03T09:50:34Z</time>
      </trkpt>
      <trkpt lat="47.927" lon="6.98032">
        <ele>764</ele>
        <time>2013-10-03T09:50:43Z</time>
      </trkpt>
      <trkpt lat="47.92708" lon="6.98038">
        <ele>765</ele>
        <time>2013-10-03T09:50:54Z</time>
      </trkpt>
      <trkpt lat="47.92722" lon="6.98058">
        <ele>768</ele>
        <time>2013-10-03T09:51:12Z</time>
      </trkpt>
      <trkpt lat="47.92735" lon="6.98078">
        <ele>773</ele>
        <time>2013-10-03T09:51:28Z</time>
      </trkpt>
      <trkpt lat="47.92742" lon="6.98087">
        <ele>773</ele>
        <time>2013-10-03T09:51:39Z</time>
      </trkpt>
      <trkpt lat="47.92737" lon="6.98077">
        <ele>773</ele>
        <time>2013-10-03T09:51:55Z</time>
      </trkpt>
      <trkpt lat="47.92745" lon="6.98087">
        <ele>775</ele>
        <time>2013-10-03T09:52:36Z</time>
      </trkpt>
      <trkpt lat="47.92765" lon="6.98115">
        <ele>786</ele>
        <time>2013-10-03T09:53:21Z</time>
      </trkpt>
      <trkpt lat="47.92775" lon="6.98113">
        <ele>788</ele>
        <time>2013-10-03T09:53:29Z</time>
      </trkpt>
      <trkpt lat="47.92795" lon="6.98113">
        <ele>791</ele>
        <time>2013-10-03T09:53:42Z</time>
      </trkpt>
      <trkpt lat="47.92814" lon="6.98119">
        <ele>794</ele>
        <time>2013-10-03T09:53:58Z</time>
      </trkpt>
      <trkpt lat="47.92823" lon="6.98118">
        <ele>795</ele>
        <time>2013-10-03T09:54:10Z</time>
      </trkpt>
      <trkpt lat="47.92831" lon="6.98124">
        <ele>796</ele>
        <time>2013-10-03T09:54:20Z</time>
      </trkpt>
      <trkpt lat="47.92849" lon="6.98113">
        <ele>807</ele>
        <time>2013-10-03T09:54:37Z</time>
      </trkpt>
      <trkpt lat="47.92856" lon="6.98104">
        <ele>807</ele>
        <time>2013-10-03T09:54:43Z</time>
      </trkpt>
      <trkpt lat="47.92864" lon="6.98099">
        <ele>807</ele>
        <time>2013-10-03T09:54:49Z</time>
      </trkpt>
      <trkpt lat="47.92873" lon="6.98101">
        <ele>807</ele>
        <time>2013-10-03T09:55:06Z</time>
      </trkpt>
      <trkpt lat="47.92895" lon="6.98103">
        <ele>807</ele>
        <time>2013-10-03T09:55:20Z</time>
      </trkpt>
      <trkpt lat="47.92902" lon="6.98112">
        <ele>808</ele>
        <time>2013-10-03T09:55:34Z</time>
      </trkpt>
      <trkpt lat="47.9291" lon="6.98101">
        <ele>807</ele>
        <time>2013-10-03T09:55:59Z</time>
      </trkpt>
      <trkpt lat="47.9292" lon="6.98101">
        <ele>807</ele>
        <time>2013-10-03T09:56:04Z</time>
      </trkpt>
      <trkpt lat="47.92939" lon="6.98098">
        <ele>807</ele>
        <time>2013-10-03T09:56:18Z</time>
      </trkpt>
      <trkpt lat="47.92949" lon="6.98099">
        <ele>806</ele>
        <time>2013-10-03T09:56:33Z</time>
      </trkpt>
      <trkpt lat="47.92965" lon="6.98114">
        <ele>806</ele>
        <time>2013-10-03T09:56:48Z</time>
      </trkpt>
      <trkpt lat="47.92974" lon="6.98114">
        <ele>806</ele>
        <time>2013-10-03T09:56:54Z</time>
      </trkpt>
      <trkpt lat="47.92983" lon="6.98115">
        <ele>806</ele>
        <time>2013-10-03T09:56:59Z</time>
      </trkpt>
      <trkpt lat="47.93002" lon="6.98123">
        <ele>799</ele>
        <time>2013-10-03T09:57:13Z</time>
      </trkpt>
      <trkpt lat="47.92992" lon="6.98127">
        <ele>806</ele>
        <time>2013-10-03T09:57:24Z</time>
      </trkpt>
      <trkpt lat="47.92973" lon="6.98125">
        <ele>806</ele>
        <time>2013-10-03T09:57:38Z</time>
      </trkpt>
      <trkpt lat="47.9297" lon="6.98141">
        <ele>807</ele>
        <time>2013-10-03T09:58:13Z</time>
      </trkpt>
      <trkpt lat="47.92986" lon="6.98153">
        <ele>806</ele>
        <time>2013-10-03T09:58:25Z</time>
      </trkpt>
      <trkpt lat="47.92997" lon="6.98176">
        <ele>808</ele>
        <time>2013-10-03T09:58:42Z</time>
      </trkpt>
      <trkpt lat="47.92999" lon="6.98189">
        <ele>810</ele>
        <time>2013-10-03T09:59:06Z</time>
      </trkpt>
      <trkpt lat="47.9299" lon="6.98191">
        <ele>811</ele>
        <time>2013-10-03T09:59:17Z</time>
      </trkpt>
      <trkpt lat="47.92978" lon="6.98201">
        <ele>812</ele>
        <time>2013-10-03T09:59:52Z</time>
      </trkpt>
      <trkpt lat="47.92976" lon="6.98231">
        <ele>814</ele>
        <time>2013-10-03T10:00:06Z</time>
      </trkpt>
      <trkpt lat="47.92976" lon="6.98245">
        <ele>814</ele>
        <time>2013-10-03T10:01:32Z</time>
      </trkpt>
      <trkpt lat="47.92968" lon="6.98237">
        <ele>815</ele>
        <time>2013-10-03T10:01:42Z</time>
      </trkpt>
      <trkpt lat="47.9296" lon="6.98228">
        <ele>815</ele>
        <time>2013-10-03T10:01:50Z</time>
      </trkpt>
      <trkpt lat="47.92956" lon="6.98216">
        <ele>815</ele>
        <time>2013-10-03T10:02:00Z</time>
      </trkpt>
      <trkpt lat="47.92941" lon="6.98221">
        <ele>817</ele>
        <time>2013-10-03T10:02:37Z</time>
      </trkpt>
      <trkpt lat="47.92937" lon="6.98233">
        <ele>819</ele>
        <time>2013-10-03T10:02:43Z</time>
      </trkpt>
      <trkpt lat="47.92928" lon="6.98237">
        <ele>821</ele>
        <time>2013-10-03T10:02:54Z</time>
      </trkpt>
      <trkpt lat="47.92919" lon="6.98243">
        <ele>824</ele>
        <time>2013-10-03T10:03:10Z</time>
      </trkpt>
      <trkpt lat="47.92909" lon="6.98247">
        <ele>824</ele>
        <time>2013-10-03T10:03:20Z</time>
      </trkpt>
      <trkpt lat="47.92899" lon="6.98247">
        <ele>821</ele>
        <time>2013-10-03T10:03:30Z</time>
      </trkpt>
      <trkpt lat="47.92891" lon="6.98253">
        <ele>822</ele>
        <time>2013-10-03T10:03:44Z</time>
      </trkpt>
      <trkpt lat="47.92884" lon="6.98245">
        <ele>818</ele>
        <time>2013-10-03T10:04:43Z</time>
      </trkpt>
      <trkpt lat="47.92874" lon="6.98244">
        <ele>816</ele>
        <time>2013-10-03T10:05:13Z</time>
      </trkpt>
      <trkpt lat="47.92865" lon="6.98242">
        <ele>815</ele>
        <time>2013-10-03T10:05:27Z</time>
      </trkpt>
      <trkpt lat="47.92855" lon="6.98245">
        <ele>814</ele>
        <time>2013-10-03T10:05:52Z</time>
      </trkpt>
      <trkpt lat="47.92839" lon="6.98258">
        <ele>815</ele>
        <time>2013-10-03T10:06:05Z</time>
      </trkpt>
      <trkpt lat="47.92833" lon="6.98269">
        <ele>807</ele>
        <time>2013-10-03T10:06:12Z</time>
      </trkpt>
      <trkpt lat="47.92835" lon="6.98282">
        <ele>817</ele>
        <time>2013-10-03T10:06:29Z</time>
      </trkpt>
      <trkpt lat="47.92848" lon="6.98303">
        <ele>818</ele>
        <time>2013-10-03T10:06:42Z</time>
      </trkpt>
      <trkpt lat="47.92858" lon="6.98309">
        <ele>818</ele>
        <time>2013-10-03T10:06:54Z</time>
      </trkpt>
      <trkpt lat="47.92866" lon="6.98315">
        <ele>819</ele>
        <time>2013-10-03T10:07:00Z</time>
      </trkpt>
      <trkpt lat="47.92849" lon="6.98306">
        <ele>818</ele>
        <time>2013-10-03T10:07:16Z</time>
      </trkpt>
      <trkpt lat="47.92851" lon="6.98319">
        <ele>818</ele>
        <time>2013-10-03T10:07:28Z</time>
      </trkpt>
      <trkpt lat="47.92855" lon="6.98331">
        <ele>818</ele>
        <time>2013-10-03T10:07:43Z</time>
      </trkpt>
      <trkpt lat="47.92871" lon="6.98345">
        <ele>825</ele>
        <time>2013-10-03T10:08:00Z</time>
      </trkpt>
      <trkpt lat="47.92884" lon="6.98364">
        <ele>827</ele>
        <time>2013-10-03T10:08:18Z</time>
      </trkpt>
      <trkpt lat="47.92894" lon="6.98366">
        <ele>827</ele>
        <time>2013-10-03T10:08:30Z</time>
      </trkpt>
      <trkpt lat="47.92903" lon="6.98374">
        <ele>828</ele>
        <time>2013-10-03T10:08:57Z</time>
      </trkpt>
      <trkpt lat="47.92911" lon="6.9838">
        <ele>828</ele>
        <time>2013-10-03T10:09:01Z</time>
      </trkpt>
      <trkpt lat="47.9292" lon="6.98388">
        <ele>825</ele>
        <time>2013-10-03T10:09:14Z</time>
      </trkpt>
      <trkpt lat="47.92931" lon="6.98393">
        <ele>824</ele>
        <time>2013-10-03T10:09:18Z</time>
      </trkpt>
      <trkpt lat="47.92937" lon="6.98412">
        <ele>826</ele>
        <time>2013-10-03T10:09:32Z</time>
      </trkpt>
      <trkpt lat="47.92945" lon="6.9842">
        <ele>835</ele>
        <time>2013-10-03T10:09:44Z</time>
      </trkpt>
      <trkpt lat="47.92957" lon="6.98437">
        <ele>835</ele>
        <time>2013-10-03T10:10:15Z</time>
      </trkpt>
      <trkpt lat="47.92964" lon="6.9845">
        <ele>836</ele>
        <time>2013-10-03T10:10:21Z</time>
      </trkpt>
      <trkpt lat="47.92981" lon="6.98462">
        <ele>837</ele>
        <time>2013-10-03T10:10:33Z</time>
      </trkpt>
      <trkpt lat="47.92985" lon="6.98474">
        <ele>838</ele>
        <time>2013-10-03T10:10:43Z</time>
      </trkpt>
      <trkpt lat="47.92988" lon="6.98487">
        <ele>840</ele>
        <time>2013-10-03T10:10:52Z</time>
      </trkpt>
      <trkpt lat="47.92991" lon="6.985">
        <ele>841</ele>
        <time>2013-10-03T10:11:02Z</time>
      </trkpt>
      <trkpt lat="47.92992" lon="6.98513">
        <ele>851</ele>
        <time>2013-10-03T10:11:10Z</time>
      </trkpt>
      <trkpt lat="47.93003" lon="6.98534">
        <ele>840</ele>
        <time>2013-10-03T10:11:25Z</time>
      </trkpt>
      <trkpt lat="47.93014" lon="6.98554">
        <ele>842</ele>
        <time>2013-10-03T10:11:45Z</time>
      </trkpt>
      <trkpt lat="47.93013" lon="6.98568">
        <ele>846</ele>
        <time>2013-10-03T10:12:26Z</time>
      </trkpt>
      <trkpt lat="47.93013" lon="6.98583">
        <ele>849</ele>
        <time>2013-10-03T10:12:36Z</time>
      </trkpt>
      <trkpt lat="47.93014" lon="6.98613">
        <ele>854</ele>
        <time>2013-10-03T10:12:50Z</time>
      </trkpt>
      <trkpt lat="47.9301" lon="6.98626">
        <ele>856</ele>
        <time>2013-10-03T10:13:21Z</time>
      </trkpt>
      <trkpt lat="47.93007" lon="6.9866">
        <ele>865</ele>
        <time>2013-10-03T10:13:31Z</time>
      </trkpt>
      <trkpt lat="47.93005" lon="6.98674">
        <ele>867</ele>
        <time>2013-10-03T10:13:51Z</time>
      </trkpt>
      <trkpt lat="47.93002" lon="6.98705">
        <ele>861</ele>
        <time>2013-10-03T10:14:05Z</time>
      </trkpt>
      <trkpt lat="47.92998" lon="6.98718">
        <ele>882</ele>
        <time>2013-10-03T10:14:11Z</time>
      </trkpt>
      <trkpt lat="47.92995" lon="6.98731">
        <ele>881</ele>
        <time>2013-10-03T10:14:41Z</time>
      </trkpt>
      <trkpt lat="47.92983" lon="6.98754">
        <ele>883</ele>
        <time>2013-10-03T10:14:51Z</time>
      </trkpt>
      <trkpt lat="47.92972" lon="6.98776">
        <ele>889</ele>
        <time>2013-10-03T10:15:04Z</time>
      </trkpt>
      <trkpt lat="47.92977" lon="6.98788">
        <ele>888</ele>
        <time>2013-10-03T10:15:22Z</time>
      </trkpt>
      <trkpt lat="47.92974" lon="6.98802">
        <ele>888</ele>
        <time>2013-10-03T10:18:14Z</time>
      </trkpt>
      <trkpt lat="47.92966" lon="6.98827">
        <ele>890</ele>
        <time>2013-10-03T10:18:37Z</time>
      </trkpt>
      <trkpt lat="47.92953" lon="6.98848">
        <ele>895</ele>
        <time>2013-10-03T10:18:51Z</time>
      </trkpt>
      <trkpt lat="47.92947" lon="6.9886">
        <ele>896</ele>
        <time>2013-10-03T10:19:05Z</time>
      </trkpt>
      <trkpt lat="47.92935" lon="6.98884">
        <ele>899</ele>
        <time>2013-10-03T10:19:17Z</time>
      </trkpt>
      <trkpt lat="47.92939" lon="6.98897">
        <ele>899</ele>
        <time>2013-10-03T10:19:43Z</time>
      </trkpt>
      <trkpt lat="47.92931" lon="6.98942">
        <ele>899</ele>
        <time>2013-10-03T10:19:59Z</time>
      </trkpt>
      <trkpt lat="47.92929" lon="6.98958">
        <ele>897</ele>
        <time>2013-10-03T10:20:13Z</time>
      </trkpt>
      <trkpt lat="47.92931" lon="6.98971">
        <ele>897</ele>
        <time>2013-10-03T10:20:20Z</time>
      </trkpt>
      <trkpt lat="47.92932" lon="6.98987">
        <ele>899</ele>
        <time>2013-10-03T10:20:34Z</time>
      </trkpt>
      <trkpt lat="47.9294" lon="6.99015">
        <ele>896</ele>
        <time>2013-10-03T10:20:47Z</time>
      </trkpt>
      <trkpt lat="47.9294" lon="6.99031">
        <ele>895</ele>
        <time>2013-10-03T10:21:01Z</time>
      </trkpt>
      <trkpt lat="47.92938" lon="6.99045">
        <ele>896</ele>
        <time>2013-10-03T10:21:04Z</time>
      </trkpt>
      <trkpt lat="47.92935" lon="6.99074">
        <ele>900</ele>
        <time>2013-10-03T10:21:15Z</time>
      </trkpt>
      <trkpt lat="47.92928" lon="6.99102">
        <ele>905</ele>
        <time>2013-10-03T10:21:26Z</time>
      </trkpt>
      <trkpt lat="47.92924" lon="6.99115">
        <ele>904</ele>
        <time>2013-10-03T10:21:31Z</time>
      </trkpt>
      <trkpt lat="47.92919" lon="6.9914">
        <ele>907</ele>
        <time>2013-10-03T10:21:44Z</time>
      </trkpt>
      <trkpt lat="47.92916" lon="6.99154">
        <ele>927</ele>
        <time>2013-10-03T10:21:59Z</time>
      </trkpt>
      <trkpt lat="47.92913" lon="6.99167">
        <ele>923</ele>
        <time>2013-10-03T10:22:14Z</time>
      </trkpt>
      <trkpt lat="47.92912" lon="6.99182">
        <ele>934</ele>
        <time>2013-10-03T10:22:48Z</time>
      </trkpt>
      <trkpt lat="47.92909" lon="6.9923">
        <ele>946</ele>
        <time>2013-10-03T10:22:57Z</time>
      </trkpt>
      <trkpt lat="47.92907" lon="6.99244">
        <ele>945</ele>
        <time>2013-10-03T10:23:02Z</time>
      </trkpt>
      <trkpt lat="47.92916" lon="6.99244">
        <ele>943</ele>
        <time>2013-10-03T10:23:19Z</time>
      </trkpt>
      <trkpt lat="47.92922" lon="6.99254">
        <ele>939</ele>
        <time>2013-10-03T10:23:36Z</time>
      </trkpt>
      <trkpt lat="47.92924" lon="6.99268">
        <ele>938</ele>
        <time>2013-10-03T10:23:50Z</time>
      </trkpt>
      <trkpt lat="47.92932" lon="6.99275">
        <ele>938</ele>
        <time>2013-10-03T10:24:16Z</time>
      </trkpt>
      <trkpt lat="47.92942" lon="6.99299">
        <ele>939</ele>
        <time>2013-10-03T10:24:31Z</time>
      </trkpt>
      <trkpt lat="47.9295" lon="6.9929">
        <ele>937</ele>
        <time>2013-10-03T10:26:03Z</time>
      </trkpt>
      <trkpt lat="47.92952" lon="6.99304">
        <ele>938</ele>
        <time>2013-10-03T10:26:29Z</time>
      </trkpt>
      <trkpt lat="47.92945" lon="6.99346">
        <ele>952</ele>
        <time>2013-10-03T10:26:41Z</time>
      </trkpt>
      <trkpt lat="47.92942" lon="6.9936">
        <ele>953</ele>
        <time>2013-10-03T10:26:48Z</time>
      </trkpt>
      <trkpt lat="47.92944" lon="6.99388">
        <ele>955</ele>
        <time>2013-10-03T10:27:06Z</time>
      </trkpt>
      <trkpt lat="47.9295" lon="6.99398">
        <ele>954</ele>
        <time>2013-10-03T10:27:14Z</time>
      </trkpt>
      <trkpt lat="47.92948" lon="6.99413">
        <ele>956</ele>
        <time>2013-10-03T10:27:31Z</time>
      </trkpt>
      <trkpt lat="47.92942" lon="6.99427">
        <ele>964</ele>
        <time>2013-10-03T10:27:35Z</time>
      </trkpt>
      <trkpt lat="47.92946" lon="6.99454">
        <ele>962</ele>
        <time>2013-10-03T10:28:00Z</time>
      </trkpt>
      <trkpt lat="47.92944" lon="6.99483">
        <ele>964</ele>
        <time>2013-10-03T10:28:11Z</time>
      </trkpt>
      <trkpt lat="47.92945" lon="6.99497">
        <ele>965</ele>
        <time>2013-10-03T10:28:18Z</time>
      </trkpt>
      <trkpt lat="47.92939" lon="6.99485">
        <ele>966</ele>
        <time>2013-10-03T10:29:07Z</time>
      </trkpt>
      <trkpt lat="47.92928" lon="6.9946">
        <ele>966</ele>
        <time>2013-10-03T10:29:18Z</time>
      </trkpt>
      <trkpt lat="47.92921" lon="6.99452">
        <ele>966</ele>
        <time>2013-10-03T10:29:23Z</time>
      </trkpt>
      <trkpt lat="47.92912" lon="6.99448">
        <ele>989</ele>
        <time>2013-10-03T10:29:31Z</time>
      </trkpt>
      <trkpt lat="47.92895" lon="6.99433">
        <ele>989</ele>
        <time>2013-10-03T10:29:45Z</time>
      </trkpt>
      <trkpt lat="47.92891" lon="6.9942">
        <ele>989</ele>
        <time>2013-10-03T10:29:56Z</time>
      </trkpt>
      <trkpt lat="47.92882" lon="6.99415">
        <ele>986</ele>
        <time>2013-10-03T10:30:07Z</time>
      </trkpt>
      <trkpt lat="47.92876" lon="6.99405">
        <ele>987</ele>
        <time>2013-10-03T10:30:16Z</time>
      </trkpt>
      <trkpt lat="47.9286" lon="6.99391">
        <ele>990</ele>
        <time>2013-10-03T10:30:30Z</time>
      </trkpt>
      <trkpt lat="47.92841" lon="6.99384">
        <ele>992</ele>
        <time>2013-10-03T10:31:25Z</time>
      </trkpt>
      <trkpt lat="47.92826" lon="6.99367">
        <ele>1011</ele>
        <time>2013-10-03T10:31:41Z</time>
      </trkpt>
      <trkpt lat="47.92818" lon="6.99358">
        <ele>1010</ele>
        <time>2013-10-03T10:31:48Z</time>
      </trkpt>
      <trkpt lat="47.92822" lon="6.99372">
        <ele>1012</ele>
        <time>2013-10-03T10:32:15Z</time>
      </trkpt>
      <trkpt lat="47.92818" lon="6.99386">
        <ele>1014</ele>
        <time>2013-10-03T10:32:27Z</time>
      </trkpt>
      <trkpt lat="47.92821" lon="6.99399">
        <ele>1013</ele>
        <time>2013-10-03T10:32:35Z</time>
      </trkpt>
      <trkpt lat="47.92827" lon="6.99411">
        <ele>1010</ele>
        <time>2013-10-03T10:32:45Z</time>
      </trkpt>
      <trkpt lat="47.9283" lon="6.99439">
        <ele>1017</ele>
        <time>2013-10-03T10:33:02Z</time>
      </trkpt>
      <trkpt lat="47.92836" lon="6.99467">
        <ele>1001</ele>
        <time>2013-10-03T10:33:20Z</time>
      </trkpt>
      <trkpt lat="47.92836" lon="6.99483">
        <ele>1003</ele>
        <time>2013-10-03T10:33:49Z</time>
      </trkpt>
      <trkpt lat="47.92834" lon="6.99511">
        <ele>1005</ele>
        <time>2013-10-03T10:33:59Z</time>
      </trkpt>
      <trkpt lat="47.92818" lon="6.9953">
        <ele>1016</ele>
        <time>2013-10-03T10:34:12Z</time>
      </trkpt>
      <trkpt lat="47.92809" lon="6.99538">
        <ele>1017</ele>
        <time>2013-10-03T10:34:19Z</time>
      </trkpt>
      <trkpt lat="47.92808" lon="6.99524">
        <ele>1018</ele>
        <time>2013-10-03T10:34:30Z</time>
      </trkpt>
      <trkpt lat="47.92797" lon="6.99502">
        <ele>1020</ele>
        <time>2013-10-03T10:36:47Z</time>
      </trkpt>
      <trkpt lat="47.92785" lon="6.99477">
        <ele>1026</ele>
        <time>2013-10-03T10:36:58Z</time>
      </trkpt>
      <trkpt lat="47.9278" lon="6.99465">
        <ele>1027</ele>
        <time>2013-10-03T10:37:05Z</time>
      </trkpt>
      <trkpt lat="47.92761" lon="6.99456">
        <ele>1030</ele>
        <time>2013-10-03T10:38:06Z</time>
      </trkpt>
      <trkpt lat="47.92751" lon="6.99465">
        <ele>1031</ele>
        <time>2013-10-03T10:38:20Z</time>
      </trkpt>
      <trkpt lat="47.92757" lon="6.99475">
        <ele>1031</ele>
        <time>2013-10-03T10:38:40Z</time>
      </trkpt>
      <trkpt lat="47.92763" lon="6.99486">
        <ele>1032</ele>
        <time>2013-10-03T10:38:51Z</time>
      </trkpt>
      <trkpt lat="47.92767" lon="6.99499">
        <ele>1032</ele>
        <time>2013-10-03T10:38:57Z</time>
      </trkpt>
      <trkpt lat="47.92762" lon="6.99512">
        <ele>1029</ele>
        <time>2013-10-03T10:39:21Z</time>
      </trkpt>
      <trkpt lat="47.92757" lon="6.99526">
        <ele>1027</ele>
        <time>2013-10-03T10:39:27Z</time>
      </trkpt>
      <trkpt lat="47.92749" lon="6.99551">
        <ele>1039</ele>
        <time>2013-10-03T10:39:46Z</time>
      </trkpt>
      <trkpt lat="47.9274" lon="6.99556">
        <ele>1039</ele>
        <time>2013-10-03T10:40:16Z</time>
      </trkpt>
      <trkpt lat="47.92727" lon="6.99574">
        <ele>1038</ele>
        <time>2013-10-03T10:40:29Z</time>
      </trkpt>
      <trkpt lat="47.92722" lon="6.99587">
        <ele>1034</ele>
        <time>2013-10-03T10:41:00Z</time>
      </trkpt>
      <trkpt lat="47.92699" lon="6.99616">
        <ele>1037</ele>
        <time>2013-10-03T10:41:11Z</time>
      </trkpt>
      <trkpt lat="47.92691" lon="6.99626">
        <ele>1038</ele>
        <time>2013-10-03T10:41:16Z</time>
      </trkpt>
      <trkpt lat="47.92683" lon="6.99634">
        <ele>1039</ele>
        <time>2013-10-03T10:41:24Z</time>
      </trkpt>
      <trkpt lat="47.92669" lon="6.99651">
        <ele>1041</ele>
        <time>2013-10-03T10:41:47Z</time>
      </trkpt>
      <trkpt lat="47.92663" lon="6.99662">
        <ele>1044</ele>
        <time>2013-10-03T10:42:15Z</time>
      </trkpt>
      <trkpt lat="47.92657" lon="6.99673">
        <ele>1044</ele>
        <time>2013-10-03T10:42:33Z</time>
      </trkpt>
      <trkpt lat="47.92646" lon="6.99696">
        <ele>1042</ele>
        <time>2013-10-03T10:42:44Z</time>
      </trkpt>
      <trkpt lat="47.9264" lon="6.99706">
        <ele>1042</ele>
        <time>2013-10-03T10:42:49Z</time>
      </trkpt>
      <trkpt lat="47.92635" lon="6.99718">
        <ele>1042</ele>
        <time>2013-10-03T10:42:58Z</time>
      </trkpt>
      <trkpt lat="47.92633" lon="6.99732">
        <ele>1042</ele>
        <time>2013-10-03T10:43:11Z</time>
      </trkpt>
      <trkpt lat="47.92629" lon="6.99745">
        <ele>1043</ele>
        <time>2013-10-03T10:43:38Z</time>
      </trkpt>
      <trkpt lat="47.92637" lon="6.99753">
        <ele>1053</ele>
        <time>2013-10-03T10:43:54Z</time>
      </trkpt>
      <trkpt lat="47.92635" lon="6.99767">
        <ele>1053</ele>
        <time>2013-10-03T10:44:10Z</time>
      </trkpt>
      <trkpt lat="47.92634" lon="6.99781">
        <ele>1054</ele>
        <time>2013-10-03T10:44:22Z</time>
      </trkpt>
      <trkpt lat="47.92625" lon="6.99805">
        <ele>1056</ele>
        <time>2013-10-03T10:45:34Z</time>
      </trkpt>
      <trkpt lat="47.92614" lon="6.99827">
        <ele>1057</ele>
        <time>2013-10-03T10:45:51Z</time>
      </trkpt>
      <trkpt lat="47.92612" lon="6.9984">
        <ele>1068</ele>
        <time>2013-10-03T10:45:58Z</time>
      </trkpt>
      <trkpt lat="47.92604" lon="6.99868">
        <ele>1071</ele>
        <time>2013-10-03T10:46:09Z</time>
      </trkpt>
      <trkpt lat="47.92594" lon="6.99892">
        <ele>1075</ele>
        <time>2013-10-03T10:46:43Z</time>
      </trkpt>
      <trkpt lat="47.92588" lon="6.99919">
        <ele>1082</ele>
        <time>2013-10-03T10:47:15Z</time>
      </trkpt>
      <trkpt lat="47.92582" lon="6.99932">
        <ele>1079</ele>
        <time>2013-10-03T10:47:20Z</time>
      </trkpt>
      <trkpt lat="47.92574" lon="6.9994">
        <ele>1079</ele>
        <time>2013-10-03T10:47:25Z</time>
      </trkpt>
      <trkpt lat="47.92566" lon="6.99966">
        <ele>1081</ele>
        <time>2013-10-03T10:48:02Z</time>
      </trkpt>
      <trkpt lat="47.9256" lon="6.99979">
        <ele>1082</ele>
        <time>2013-10-03T10:48:23Z</time>
      </trkpt>
      <trkpt lat="47.92547" lon="6.99999">
        <ele>1081</ele>
        <time>2013-10-03T10:48:36Z</time>
      </trkpt>
      <trkpt lat="47.92537" lon="7.00023">
        <ele>1089</ele>
        <time>2013-10-03T10:48:55Z</time>
      </trkpt>
      <trkpt lat="47.92538" lon="7.00038">
        <ele>1090</ele>
        <time>2013-10-03T10:49:07Z</time>
      </trkpt>
      <trkpt lat="47.92546" lon="7.00044">
        <ele>1091</ele>
        <time>2013-10-03T10:49:18Z</time>
      </trkpt>
      <trkpt lat="47.92554" lon="7.00035">
        <ele>1092</ele>
        <time>2013-10-03T10:50:07Z</time>
      </trkpt>
      <trkpt lat="47.92559" lon="7.00024">
        <ele>1092</ele>
        <time>2013-10-03T10:50:21Z</time>
      </trkpt>
      <trkpt lat="47.92564" lon="7.00036">
        <ele>1093</ele>
        <time>2013-10-03T10:50:49Z</time>
      </trkpt>
      <trkpt lat="47.92568" lon="7.0005">
        <ele>1094</ele>
        <time>2013-10-03T10:51:00Z</time>
      </trkpt>
      <trkpt lat="47.92574" lon="7.0006">
        <ele>1096</ele>
        <time>2013-10-03T10:51:39Z</time>
      </trkpt>
      <trkpt lat="47.92578" lon="7.00085">
        <ele>1102</ele>
        <time>2013-10-03T10:51:56Z</time>
      </trkpt>
      <trkpt lat="47.9257" lon="7.00112">
        <ele>1099</ele>
        <time>2013-10-03T10:52:08Z</time>
      </trkpt>
      <trkpt lat="47.92568" lon="7.00125">
        <ele>1098</ele>
        <time>2013-10-03T10:52:18Z</time>
      </trkpt>
      <trkpt lat="47.92563" lon="7.00153">
        <ele>1098</ele>
        <time>2013-10-03T10:52:33Z</time>
      </trkpt>
      <trkpt lat="47.92559" lon="7.00165">
        <ele>1098</ele>
        <time>2013-10-03T10:52:42Z</time>
      </trkpt>
      <trkpt lat="47.92551" lon="7.0019">
        <ele>1100</ele>
        <time>2013-10-03T10:52:57Z</time>
      </trkpt>
      <trkpt lat="47.92546" lon="7.00205">
        <ele>1101</ele>
        <time>2013-10-03T10:53:19Z</time>
      </trkpt>
      <trkpt lat="47.9254" lon="7.00232">
        <ele>1102</ele>
        <time>2013-10-03T10:53:29Z</time>
      </trkpt>
      <trkpt lat="47.92537" lon="7.00246">
        <ele>1103</ele>
        <time>2013-10-03T10:53:36Z</time>
      </trkpt>
      <trkpt lat="47.92531" lon="7.00257">
        <ele>1108</ele>
        <time>2013-10-03T10:54:14Z</time>
      </trkpt>
      <trkpt lat="47.92516" lon="7.00275">
        <ele>1110</ele>
        <time>2013-10-03T10:54:24Z</time>
      </trkpt>
      <trkpt lat="47.92509" lon="7.00284">
        <ele>1110</ele>
        <time>2013-10-03T10:54:30Z</time>
      </trkpt>
      <trkpt lat="47.92495" lon="7.00303">
        <ele>1110</ele>
        <time>2013-10-03T10:54:48Z</time>
      </trkpt>
      <trkpt lat="47.92501" lon="7.00293">
        <ele>1111</ele>
        <time>2013-10-03T10:55:03Z</time>
      </trkpt>
      <trkpt lat="47.92518" lon="7.00307">
        <ele>1111</ele>
        <time>2013-10-03T10:55:25Z</time>
      </trkpt>
      <trkpt lat="47.92528" lon="7.00304">
        <ele>1110</ele>
        <time>2013-10-03T10:55:33Z</time>
      </trkpt>
      <trkpt lat="47.92527" lon="7.00318">
        <ele>1111</ele>
        <time>2013-10-03T10:55:54Z</time>
      </trkpt>
      <trkpt lat="47.92521" lon="7.0033">
        <ele>1113</ele>
        <time>2013-10-03T10:56:02Z</time>
      </trkpt>
      <trkpt lat="47.92526" lon="7.00358">
        <ele>1114</ele>
        <time>2013-10-03T10:56:20Z</time>
      </trkpt>
      <trkpt lat="47.92525" lon="7.00386">
        <ele>1115</ele>
        <time>2013-10-03T10:56:35Z</time>
      </trkpt>
      <trkpt lat="47.92529" lon="7.00401">
        <ele>1115</ele>
        <time>2013-10-03T10:56:43Z</time>
      </trkpt>
      <trkpt lat="47.92529" lon="7.00429">
        <ele>1117</ele>
        <time>2013-10-03T10:56:57Z</time>
      </trkpt>
      <trkpt lat="47.92526" lon="7.00443">
        <ele>1117</ele>
        <time>2013-10-03T10:57:04Z</time>
      </trkpt>
      <trkpt lat="47.92526" lon="7.00457">
        <ele>1117</ele>
        <time>2013-10-03T10:57:15Z</time>
      </trkpt>
      <trkpt lat="47.92525" lon="7.00483">
        <ele>1117</ele>
        <time>2013-10-03T10:57:28Z</time>
      </trkpt>
      <trkpt lat="47.92526" lon="7.00507">
        <ele>1117</ele>
        <time>2013-10-03T10:57:42Z</time>
      </trkpt>
      <trkpt lat="47.9253" lon="7.0052">
        <ele>1117</ele>
        <time>2013-10-03T10:57:52Z</time>
      </trkpt>
      <trkpt lat="47.92536" lon="7.00547">
        <ele>1116</ele>
        <time>2013-10-03T10:58:08Z</time>
      </trkpt>
      <trkpt lat="47.92541" lon="7.00561">
        <ele>1116</ele>
        <time>2013-10-03T10:58:13Z</time>
      </trkpt>
      <trkpt lat="47.92545" lon="7.00573">
        <ele>1117</ele>
        <time>2013-10-03T10:58:25Z</time>
      </trkpt>
      <trkpt lat="47.92549" lon="7.00586">
        <ele>1119</ele>
        <time>2013-10-03T10:58:33Z</time>
      </trkpt>
      <trkpt lat="47.9255" lon="7.00602">
        <ele>1119</ele>
        <time>2013-10-03T10:58:44Z</time>
      </trkpt>
      <trkpt lat="47.92549" lon="7.00617">
        <ele>1120</ele>
        <time>2013-10-03T10:59:06Z</time>
      </trkpt>
      <trkpt lat="47.92546" lon="7.00648">
        <ele>1120</ele>
        <time>2013-10-03T10:59:21Z</time>
      </trkpt>
      <trkpt lat="47.92543" lon="7.00676">
        <ele>1125</ele>
        <time>2013-10-03T10:59:36Z</time>
      </trkpt>
      <trkpt lat="47.92541" lon="7.0069">
        <ele>1126</ele>
        <time>2013-10-03T11:00:15Z</time>
      </trkpt>
      <trkpt lat="47.92537" lon="7.0072">
        <ele>1127</ele>
        <time>2013-10-03T11:00:31Z</time>
      </trkpt>
      <trkpt lat="47.92534" lon="7.00733">
        <ele>1127</ele>
        <time>2013-10-03T11:00:36Z</time>
      </trkpt>
      <trkpt lat="47.92529" lon="7.0076">
        <ele>1134</ele>
        <time>2013-10-03T11:00:52Z</time>
      </trkpt>
      <trkpt lat="47.9253" lon="7.00775">
        <ele>1136</ele>
        <time>2013-10-03T11:01:52Z</time>
      </trkpt>
      <trkpt lat="47.92524" lon="7.00787">
        <ele>1137</ele>
        <time>2013-10-03T11:02:01Z</time>
      </trkpt>
      <trkpt lat="47.92513" lon="7.00811">
        <ele>1138</ele>
        <time>2013-10-03T11:02:17Z</time>
      </trkpt>
      <trkpt lat="47.92502" lon="7.00834">
        <ele>1138</ele>
        <time>2013-10-03T11:02:34Z</time>
      </trkpt>
      <trkpt lat="47.92487" lon="7.00849">
        <ele>1140</ele>
        <time>2013-10-03T11:02:49Z</time>
      </trkpt>
      <trkpt lat="47.92469" lon="7.00859">
        <ele>1141</ele>
        <time>2013-10-03T11:03:05Z</time>
      </trkpt>
      <trkpt lat="47.92452" lon="7.00867">
        <ele>1141</ele>
        <time>2013-10-03T11:03:20Z</time>
      </trkpt>
      <trkpt lat="47.92432" lon="7.00869">
        <ele>1140</ele>
        <time>2013-10-03T11:03:34Z</time>
      </trkpt>
      <trkpt lat="47.92422" lon="7.00872">
        <ele>1140</ele>
        <time>2013-10-03T11:03:42Z</time>
      </trkpt>
      <trkpt lat="47.92413" lon="7.00876">
        <ele>1136</ele>
        <time>2013-10-03T11:03:48Z</time>
      </trkpt>
      <trkpt lat="47.92404" lon="7.00877">
        <ele>1136</ele>
        <time>2013-10-03T11:03:58Z</time>
      </trkpt>
      <trkpt lat="47.92394" lon="7.00881">
        <ele>1137</ele>
        <time>2013-10-03T11:04:11Z</time>
      </trkpt>
      <trkpt lat="47.92386" lon="7.00886">
        <ele>1137</ele>
        <time>2013-10-03T11:04:39Z</time>
      </trkpt>
      <trkpt lat="47.92367" lon="7.00891">
        <ele>1137</ele>
        <time>2013-10-03T11:05:00Z</time>
      </trkpt>
      <trkpt lat="47.92358" lon="7.0089">
        <ele>1136</ele>
        <time>2013-10-03T11:05:13Z</time>
      </trkpt>
      <trkpt lat="47.92365" lon="7.00882">
        <ele>1136</ele>
        <time>2013-10-03T11:06:06Z</time>
      </trkpt>
      <trkpt lat="47.92374" lon="7.00877">
        <ele>1135</ele>
        <time>2013-10-03T11:06:10Z</time>
      </trkpt>
      <trkpt lat="47.92384" lon="7.00879">
        <ele>1136</ele>
        <time>2013-10-03T11:06:14Z</time>
      </trkpt>
      <trkpt lat="47.92373" lon="7.00883">
        <ele>1136</ele>
        <time>2013-10-03T11:06:48Z</time>
      </trkpt>
      <trkpt lat="47.92363" lon="7.00882">
        <ele>1135</ele>
        <time>2013-10-03T11:06:52Z</time>
      </trkpt>
      <trkpt lat="47.92354" lon="7.00885">
        <ele>1136</ele>
        <time>2013-10-03T11:06:56Z</time>
      </trkpt>
      <trkpt lat="47.92345" lon="7.00883">
        <ele>1135</ele>
        <time>2013-10-03T11:10:57Z</time>
      </trkpt>
      <trkpt lat="47.9236" lon="7.01213">
        <ele>1165</ele>
        <time>2013-10-03T12:50:27Z</time>
      </trkpt>
      <trkpt lat="47.9236" lon="7.01246">
        <ele>1164</ele>
        <time>2013-10-03T12:50:45Z</time>
      </trkpt>
      <trkpt lat="47.92364" lon="7.01259">
        <ele>1165</ele>
        <time>2013-10-03T12:51:40Z</time>
      </trkpt>
      <trkpt lat="47.92383" lon="7.01304">
        <ele>1170</ele>
        <time>2013-10-03T12:51:53Z</time>
      </trkpt>
      <trkpt lat="47.92395" lon="7.01345">
        <ele>1168</ele>
        <time>2013-10-03T12:52:06Z</time>
      </trkpt>
      <trkpt lat="47.92403" lon="7.01352">
        <ele>1170</ele>
        <time>2013-10-03T12:52:38Z</time>
      </trkpt>
      <trkpt lat="47.9241" lon="7.01361">
        <ele>1168</ele>
        <time>2013-10-03T12:52:48Z</time>
      </trkpt>
      <trkpt lat="47.92414" lon="7.01373">
        <ele>1166</ele>
        <time>2013-10-03T12:52:58Z</time>
      </trkpt>
      <trkpt lat="47.92424" lon="7.01377">
        <ele>1191</ele>
        <time>2013-10-03T12:53:18Z</time>
      </trkpt>
      <trkpt lat="47.92432" lon="7.01384">
        <ele>1191</ele>
        <time>2013-10-03T12:53:31Z</time>
      </trkpt>
      <trkpt lat="47.92447" lon="7.01402">
        <ele>1191</ele>
        <time>2013-10-03T12:53:50Z</time>
      </trkpt>
      <trkpt lat="47.92463" lon="7.01417">
        <ele>1187</ele>
        <time>2013-10-03T12:54:01Z</time>
      </trkpt>
      <trkpt lat="47.92473" lon="7.01423">
        <ele>1190</ele>
        <time>2013-10-03T12:54:12Z</time>
      </trkpt>
      <trkpt lat="47.92479" lon="7.01435">
        <ele>1191</ele>
        <time>2013-10-03T12:54:18Z</time>
      </trkpt>
      <trkpt lat="47.92486" lon="7.0146">
        <ele>1189</ele>
        <time>2013-10-03T12:54:34Z</time>
      </trkpt>
      <trkpt lat="47.92496" lon="7.01483">
        <ele>1192</ele>
        <time>2013-10-03T12:54:47Z</time>
      </trkpt>
      <trkpt lat="47.92499" lon="7.01496">
        <ele>1196</ele>
        <time>2013-10-03T12:54:57Z</time>
      </trkpt>
      <trkpt lat="47.92507" lon="7.01503">
        <ele>1203</ele>
        <time>2013-10-03T12:55:47Z</time>
      </trkpt>
      <trkpt lat="47.92516" lon="7.01504">
        <ele>1207</ele>
        <time>2013-10-03T12:56:12Z</time>
      </trkpt>
      <trkpt lat="47.92524" lon="7.01513">
        <ele>1211</ele>
        <time>2013-10-03T12:56:49Z</time>
      </trkpt>
      <trkpt lat="47.92522" lon="7.01528">
        <ele>1211</ele>
        <time>2013-10-03T12:56:55Z</time>
      </trkpt>
      <trkpt lat="47.9252" lon="7.01542">
        <ele>1212</ele>
        <time>2013-10-03T12:57:03Z</time>
      </trkpt>
      <trkpt lat="47.92522" lon="7.01555">
        <ele>1212</ele>
        <time>2013-10-03T12:57:10Z</time>
      </trkpt>
      <trkpt lat="47.9252" lon="7.01583">
        <ele>1209</ele>
        <time>2013-10-03T12:57:32Z</time>
      </trkpt>
      <trkpt lat="47.9252" lon="7.01598">
        <ele>1213</ele>
        <time>2013-10-03T12:57:40Z</time>
      </trkpt>
      <trkpt lat="47.92517" lon="7.01627">
        <ele>1216</ele>
        <time>2013-10-03T12:58:02Z</time>
      </trkpt>
      <trkpt lat="47.92517" lon="7.01642">
        <ele>1215</ele>
        <time>2013-10-03T12:58:10Z</time>
      </trkpt>
      <trkpt lat="47.92516" lon="7.01655">
        <ele>1214</ele>
        <time>2013-10-03T12:58:20Z</time>
      </trkpt>
      <trkpt lat="47.92508" lon="7.01681">
        <ele>1215</ele>
        <time>2013-10-03T12:58:36Z</time>
      </trkpt>
      <trkpt lat="47.92507" lon="7.01695">
        <ele>1218</ele>
        <time>2013-10-03T12:58:48Z</time>
      </trkpt>
      <trkpt lat="47.92503" lon="7.01709">
        <ele>1219</ele>
        <time>2013-10-03T12:58:51Z</time>
      </trkpt>
      <trkpt lat="47.92501" lon="7.01722">
        <ele>1219</ele>
        <time>2013-10-03T12:59:05Z</time>
      </trkpt>
      <trkpt lat="47.92504" lon="7.01735">
        <ele>1217</ele>
        <time>2013-10-03T12:59:18Z</time>
      </trkpt>
      <trkpt lat="47.92499" lon="7.01747">
        <ele>1209</ele>
        <time>2013-10-03T12:59:22Z</time>
      </trkpt>
      <trkpt lat="47.92492" lon="7.01776">
        <ele>1201</ele>
        <time>2013-10-03T12:59:42Z</time>
      </trkpt>
      <trkpt lat="47.92487" lon="7.0179">
        <ele>1199</ele>
        <time>2013-10-03T12:59:47Z</time>
      </trkpt>
      <trkpt lat="47.92481" lon="7.01816">
        <ele>1201</ele>
        <time>2013-10-03T12:59:58Z</time>
      </trkpt>
      <trkpt lat="47.92481" lon="7.01843">
        <ele>1203</ele>
        <time>2013-10-03T13:00:13Z</time>
      </trkpt>
      <trkpt lat="47.92479" lon="7.01857">
        <ele>1201</ele>
        <time>2013-10-03T13:00:18Z</time>
      </trkpt>
      <trkpt lat="47.92479" lon="7.01886">
        <ele>1200</ele>
        <time>2013-10-03T13:00:34Z</time>
      </trkpt>
      <trkpt lat="47.92483" lon="7.01901">
        <ele>1202</ele>
        <time>2013-10-03T13:00:50Z</time>
      </trkpt>
      <trkpt lat="47.92489" lon="7.01928">
        <ele>1202</ele>
        <time>2013-10-03T13:01:06Z</time>
      </trkpt>
      <trkpt lat="47.92498" lon="7.01952">
        <ele>1197</ele>
        <time>2013-10-03T13:01:18Z</time>
      </trkpt>
      <trkpt lat="47.92501" lon="7.01964">
        <ele>1212</ele>
        <time>2013-10-03T13:01:28Z</time>
      </trkpt>
      <trkpt lat="47.92513" lon="7.01985">
        <ele>1210</ele>
        <time>2013-10-03T13:02:01Z</time>
      </trkpt>
      <trkpt lat="47.92518" lon="7.01998">
        <ele>1210</ele>
        <time>2013-10-03T13:02:11Z</time>
      </trkpt>
      <trkpt lat="47.92531" lon="7.02018">
        <ele>1211</ele>
        <time>2013-10-03T13:02:26Z</time>
      </trkpt>
      <trkpt lat="47.92547" lon="7.02039">
        <ele>1213</ele>
        <time>2013-10-03T13:02:41Z</time>
      </trkpt>
      <trkpt lat="47.92554" lon="7.02062">
        <ele>1214</ele>
        <time>2013-10-03T13:02:54Z</time>
      </trkpt>
      <trkpt lat="47.92553" lon="7.02077">
        <ele>1214</ele>
        <time>2013-10-03T13:03:01Z</time>
      </trkpt>
      <trkpt lat="47.92548" lon="7.02104">
        <ele>1214</ele>
        <time>2013-10-03T13:03:15Z</time>
      </trkpt>
      <trkpt lat="47.92545" lon="7.02118">
        <ele>1215</ele>
        <time>2013-10-03T13:03:32Z</time>
      </trkpt>
      <trkpt lat="47.92555" lon="7.02132">
        <ele>1216</ele>
        <time>2013-10-03T13:03:50Z</time>
      </trkpt>
      <trkpt lat="47.92564" lon="7.02133">
        <ele>1218</ele>
        <time>2013-10-03T13:04:26Z</time>
      </trkpt>
      <trkpt lat="47.92573" lon="7.02134">
        <ele>1218</ele>
        <time>2013-10-03T13:04:57Z</time>
      </trkpt>
      <trkpt lat="47.92591" lon="7.02125">
        <ele>1227</ele>
        <time>2013-10-03T13:05:18Z</time>
      </trkpt>
      <trkpt lat="47.92599" lon="7.02123">
        <ele>1228</ele>
        <time>2013-10-03T13:05:29Z</time>
      </trkpt>
      <trkpt lat="47.92609" lon="7.02121">
        <ele>1228</ele>
        <time>2013-10-03T13:05:40Z</time>
      </trkpt>
      <trkpt lat="47.92618" lon="7.0212">
        <ele>1228</ele>
        <time>2013-10-03T13:06:12Z</time>
      </trkpt>
      <trkpt lat="47.9262" lon="7.02133">
        <ele>1229</ele>
        <time>2013-10-03T13:06:37Z</time>
      </trkpt>
      <trkpt lat="47.92619" lon="7.02147">
        <ele>1229</ele>
        <time>2013-10-03T13:06:50Z</time>
      </trkpt>
      <trkpt lat="47.92611" lon="7.02171">
        <ele>1233</ele>
        <time>2013-10-03T13:07:06Z</time>
      </trkpt>
      <trkpt lat="47.92603" lon="7.02198">
        <ele>1235</ele>
        <time>2013-10-03T13:07:23Z</time>
      </trkpt>
      <trkpt lat="47.92596" lon="7.02225">
        <ele>1237</ele>
        <time>2013-10-03T13:07:37Z</time>
      </trkpt>
      <trkpt lat="47.92595" lon="7.0224">
        <ele>1239</ele>
        <time>2013-10-03T13:07:47Z</time>
      </trkpt>
      <trkpt lat="47.92592" lon="7.02253">
        <ele>1243</ele>
        <time>2013-10-03T13:08:07Z</time>
      </trkpt>
      <trkpt lat="47.92586" lon="7.02263">
        <ele>1243</ele>
        <time>2013-10-03T13:08:23Z</time>
      </trkpt>
      <trkpt lat="47.92583" lon="7.02278">
        <ele>1241</ele>
        <time>2013-10-03T13:08:32Z</time>
      </trkpt>
      <trkpt lat="47.92578" lon="7.02291">
        <ele>1242</ele>
        <time>2013-10-03T13:08:42Z</time>
      </trkpt>
      <trkpt lat="47.92573" lon="7.02304">
        <ele>1243</ele>
        <time>2013-10-03T13:08:58Z</time>
      </trkpt>
      <trkpt lat="47.92571" lon="7.02317">
        <ele>1244</ele>
        <time>2013-10-03T13:09:06Z</time>
      </trkpt>
      <trkpt lat="47.92567" lon="7.02329">
        <ele>1245</ele>
        <time>2013-10-03T13:09:42Z</time>
      </trkpt>
      <trkpt lat="47.92559" lon="7.02353">
        <ele>1247</ele>
        <time>2013-10-03T13:09:59Z</time>
      </trkpt>
      <trkpt lat="47.92554" lon="7.02367">
        <ele>1247</ele>
        <time>2013-10-03T13:10:59Z</time>
      </trkpt>
      <trkpt lat="47.92552" lon="7.02381">
        <ele>1247</ele>
        <time>2013-10-03T13:11:06Z</time>
      </trkpt>
      <trkpt lat="47.92544" lon="7.02406">
        <ele>1247</ele>
        <time>2013-10-03T13:11:19Z</time>
      </trkpt>
      <trkpt lat="47.92538" lon="7.02433">
        <ele>1245</ele>
        <time>2013-10-03T13:11:38Z</time>
      </trkpt>
      <trkpt lat="47.92531" lon="7.02458">
        <ele>1244</ele>
        <time>2013-10-03T13:11:58Z</time>
      </trkpt>
      <trkpt lat="47.92527" lon="7.02471">
        <ele>1244</ele>
        <time>2013-10-03T13:12:12Z</time>
      </trkpt>
      <trkpt lat="47.92524" lon="7.02486">
        <ele>1243</ele>
        <time>2013-10-03T13:12:29Z</time>
      </trkpt>
      <trkpt lat="47.9252" lon="7.02498">
        <ele>1242</ele>
        <time>2013-10-03T13:12:40Z</time>
      </trkpt>
      <trkpt lat="47.9251" lon="7.02524">
        <ele>1238</ele>
        <time>2013-10-03T13:12:51Z</time>
      </trkpt>
      <trkpt lat="47.92506" lon="7.02536">
        <ele>1237</ele>
        <time>2013-10-03T13:13:02Z</time>
      </trkpt>
      <trkpt lat="47.92502" lon="7.0255">
        <ele>1236</ele>
        <time>2013-10-03T13:13:14Z</time>
      </trkpt>
      <trkpt lat="47.925" lon="7.02578">
        <ele>1229</ele>
        <time>2013-10-03T13:13:36Z</time>
      </trkpt>
      <trkpt lat="47.92508" lon="7.02585">
        <ele>1231</ele>
        <time>2013-10-03T13:13:47Z</time>
      </trkpt>
      <trkpt lat="47.92525" lon="7.026">
        <ele>1232</ele>
        <time>2013-10-03T13:14:04Z</time>
      </trkpt>
      <trkpt lat="47.92532" lon="7.02609">
        <ele>1232</ele>
        <time>2013-10-03T13:14:15Z</time>
      </trkpt>
      <trkpt lat="47.9254" lon="7.02635">
        <ele>1232</ele>
        <time>2013-10-03T13:14:33Z</time>
      </trkpt>
      <trkpt lat="47.92545" lon="7.02664">
        <ele>1231</ele>
        <time>2013-10-03T13:14:47Z</time>
      </trkpt>
      <trkpt lat="47.92551" lon="7.0269">
        <ele>1228</ele>
        <time>2013-10-03T13:15:04Z</time>
      </trkpt>
      <trkpt lat="47.92562" lon="7.02712">
        <ele>1227</ele>
        <time>2013-10-03T13:15:21Z</time>
      </trkpt>
      <trkpt lat="47.92572" lon="7.02738">
        <ele>1226</ele>
        <time>2013-10-03T13:15:39Z</time>
      </trkpt>
      <trkpt lat="47.92576" lon="7.02724">
        <ele>1226</ele>
        <time>2013-10-03T13:18:10Z</time>
      </trkpt>
      <trkpt lat="47.92589" lon="7.02705">
        <ele>1225</ele>
        <time>2013-10-03T13:18:28Z</time>
      </trkpt>
      <trkpt lat="47.92599" lon="7.02681">
        <ele>1226</ele>
        <time>2013-10-03T13:18:43Z</time>
      </trkpt>
      <trkpt lat="47.92608" lon="7.02673">
        <ele>1226</ele>
        <time>2013-10-03T13:18:53Z</time>
      </trkpt>
      <trkpt lat="47.92623" lon="7.02657">
        <ele>1229</ele>
        <time>2013-10-03T13:19:10Z</time>
      </trkpt>
      <trkpt lat="47.92637" lon="7.02658">
        <ele>1228</ele>
        <time>2013-10-03T13:19:29Z</time>
      </trkpt>
      <trkpt lat="47.92643" lon="7.0267">
        <ele>1223</ele>
        <time>2013-10-03T13:19:38Z</time>
      </trkpt>
      <trkpt lat="47.92651" lon="7.02696">
        <ele>1223</ele>
        <time>2013-10-03T13:19:58Z</time>
      </trkpt>
      <trkpt lat="47.92657" lon="7.02723">
        <ele>1222</ele>
        <time>2013-10-03T13:20:15Z</time>
      </trkpt>
      <trkpt lat="47.92659" lon="7.02738">
        <ele>1220</ele>
        <time>2013-10-03T13:20:26Z</time>
      </trkpt>
      <trkpt lat="47.9266" lon="7.02752">
        <ele>1218</ele>
        <time>2013-10-03T13:20:34Z</time>
      </trkpt>
      <trkpt lat="47.92665" lon="7.02779">
        <ele>1217</ele>
        <time>2013-10-03T13:20:51Z</time>
      </trkpt>
      <trkpt lat="47.92668" lon="7.02792">
        <ele>1211</ele>
        <time>2013-10-03T13:21:02Z</time>
      </trkpt>
      <trkpt lat="47.92665" lon="7.02779">
        <ele>1217</ele>
        <time>2013-10-03T13:21:22Z</time>
      </trkpt>
      <trkpt lat="47.92673" lon="7.02752">
        <ele>1216</ele>
        <time>2013-10-03T13:21:40Z</time>
      </trkpt>
      <trkpt lat="47.92679" lon="7.02739">
        <ele>1215</ele>
        <time>2013-10-03T13:21:48Z</time>
      </trkpt>
      <trkpt lat="47.92687" lon="7.02713">
        <ele>1214</ele>
        <time>2013-10-03T13:22:00Z</time>
      </trkpt>
      <trkpt lat="47.92694" lon="7.02686">
        <ele>1215</ele>
        <time>2013-10-03T13:22:15Z</time>
      </trkpt>
      <trkpt lat="47.92701" lon="7.02661">
        <ele>1219</ele>
        <time>2013-10-03T13:22:32Z</time>
      </trkpt>
      <trkpt lat="47.92713" lon="7.02638">
        <ele>1219</ele>
        <time>2013-10-03T13:22:45Z</time>
      </trkpt>
      <trkpt lat="47.92721" lon="7.0263">
        <ele>1219</ele>
        <time>2013-10-03T13:22:56Z</time>
      </trkpt>
      <trkpt lat="47.92728" lon="7.02603">
        <ele>1220</ele>
        <time>2013-10-03T13:23:12Z</time>
      </trkpt>
      <trkpt lat="47.92746" lon="7.02598">
        <ele>1219</ele>
        <time>2013-10-03T13:23:32Z</time>
      </trkpt>
      <trkpt lat="47.92756" lon="7.02595">
        <ele>1212</ele>
        <time>2013-10-03T13:23:42Z</time>
      </trkpt>
      <trkpt lat="47.92761" lon="7.02568">
        <ele>1216</ele>
        <time>2013-10-03T13:23:57Z</time>
      </trkpt>
      <trkpt lat="47.92766" lon="7.02556">
        <ele>1215</ele>
        <time>2013-10-03T13:24:08Z</time>
      </trkpt>
      <trkpt lat="47.92777" lon="7.02534">
        <ele>1216</ele>
        <time>2013-10-03T13:24:23Z</time>
      </trkpt>
      <trkpt lat="47.9278" lon="7.02521">
        <ele>1216</ele>
        <time>2013-10-03T13:24:35Z</time>
      </trkpt>
      <trkpt lat="47.92789" lon="7.02494">
        <ele>1220</ele>
        <time>2013-10-03T13:24:52Z</time>
      </trkpt>
      <trkpt lat="47.92794" lon="7.02466">
        <ele>1220</ele>
        <time>2013-10-03T13:25:09Z</time>
      </trkpt>
      <trkpt lat="47.92805" lon="7.02441">
        <ele>1219</ele>
        <time>2013-10-03T13:25:31Z</time>
      </trkpt>
      <trkpt lat="47.92805" lon="7.02428">
        <ele>1219</ele>
        <time>2013-10-03T13:25:40Z</time>
      </trkpt>
      <trkpt lat="47.92803" lon="7.02413">
        <ele>1221</ele>
        <time>2013-10-03T13:25:47Z</time>
      </trkpt>
      <trkpt lat="47.92803" lon="7.02384">
        <ele>1222</ele>
        <time>2013-10-03T13:26:00Z</time>
      </trkpt>
      <trkpt lat="47.92804" lon="7.0237">
        <ele>1222</ele>
        <time>2013-10-03T13:26:09Z</time>
      </trkpt>
      <trkpt lat="47.92806" lon="7.02355">
        <ele>1221</ele>
        <time>2013-10-03T13:26:23Z</time>
      </trkpt>
      <trkpt lat="47.92806" lon="7.0234">
        <ele>1221</ele>
        <time>2013-10-03T13:26:43Z</time>
      </trkpt>
      <trkpt lat="47.92807" lon="7.02313">
        <ele>1222</ele>
        <time>2013-10-03T13:26:59Z</time>
      </trkpt>
      <trkpt lat="47.92807" lon="7.02299">
        <ele>1222</ele>
        <time>2013-10-03T13:27:07Z</time>
      </trkpt>
      <trkpt lat="47.92807" lon="7.0227">
        <ele>1221</ele>
        <time>2013-10-03T13:27:23Z</time>
      </trkpt>
      <trkpt lat="47.92806" lon="7.02241">
        <ele>1220</ele>
        <time>2013-10-03T13:27:37Z</time>
      </trkpt>
      <trkpt lat="47.92807" lon="7.02227">
        <ele>1220</ele>
        <time>2013-10-03T13:27:45Z</time>
      </trkpt>
      <trkpt lat="47.92795" lon="7.02208">
        <ele>1221</ele>
        <time>2013-10-03T13:28:02Z</time>
      </trkpt>
      <trkpt lat="47.92786" lon="7.02208">
        <ele>1222</ele>
        <time>2013-10-03T13:28:51Z</time>
      </trkpt>
      <trkpt lat="47.92773" lon="7.02188">
        <ele>1223</ele>
        <time>2013-10-03T13:29:07Z</time>
      </trkpt>
      <trkpt lat="47.9277" lon="7.02174">
        <ele>1224</ele>
        <time>2013-10-03T13:29:15Z</time>
      </trkpt>
      <trkpt lat="47.92765" lon="7.02146">
        <ele>1222</ele>
        <time>2013-10-03T13:29:30Z</time>
      </trkpt>
      <trkpt lat="47.92759" lon="7.02119">
        <ele>1221</ele>
        <time>2013-10-03T13:29:46Z</time>
      </trkpt>
      <trkpt lat="47.92756" lon="7.02106">
        <ele>1222</ele>
        <time>2013-10-03T13:29:53Z</time>
      </trkpt>
      <trkpt lat="47.92748" lon="7.02081">
        <ele>1227</ele>
        <time>2013-10-03T13:30:10Z</time>
      </trkpt>
      <trkpt lat="47.9274" lon="7.02054">
        <ele>1230</ele>
        <time>2013-10-03T13:30:26Z</time>
      </trkpt>
      <trkpt lat="47.92734" lon="7.02027">
        <ele>1231</ele>
        <time>2013-10-03T13:30:41Z</time>
      </trkpt>
      <trkpt lat="47.92725" lon="7.02002">
        <ele>1232</ele>
        <time>2013-10-03T13:31:01Z</time>
      </trkpt>
      <trkpt lat="47.92721" lon="7.01988">
        <ele>1235</ele>
        <time>2013-10-03T13:31:12Z</time>
      </trkpt>
      <trkpt lat="47.92714" lon="7.01963">
        <ele>1236</ele>
        <time>2013-10-03T13:31:29Z</time>
      </trkpt>
      <trkpt lat="47.92699" lon="7.0195">
        <ele>1237</ele>
        <time>2013-10-03T13:31:47Z</time>
      </trkpt>
      <trkpt lat="47.9269" lon="7.01927">
        <ele>1238</ele>
        <time>2013-10-03T13:32:11Z</time>
      </trkpt>
      <trkpt lat="47.92689" lon="7.01913">
        <ele>1241</ele>
        <time>2013-10-03T13:34:31Z</time>
      </trkpt>
      <trkpt lat="47.92688" lon="7.01899">
        <ele>1241</ele>
        <time>2013-10-03T13:34:43Z</time>
      </trkpt>
      <trkpt lat="47.92686" lon="7.01886">
        <ele>1242</ele>
        <time>2013-10-03T13:34:49Z</time>
      </trkpt>
      <trkpt lat="47.9268" lon="7.0186">
        <ele>1243</ele>
        <time>2013-10-03T13:35:04Z</time>
      </trkpt>
      <trkpt lat="47.92677" lon="7.01845">
        <ele>1244</ele>
        <time>2013-10-03T13:35:11Z</time>
      </trkpt>
      <trkpt lat="47.92674" lon="7.01832">
        <ele>1247</ele>
        <time>2013-10-03T13:35:21Z</time>
      </trkpt>
      <trkpt lat="47.92668" lon="7.01805">
        <ele>1248</ele>
        <time>2013-10-03T13:35:41Z</time>
      </trkpt>
      <trkpt lat="47.9266" lon="7.01779">
        <ele>1247</ele>
        <time>2013-10-03T13:35:57Z</time>
      </trkpt>
      <trkpt lat="47.92652" lon="7.01754">
        <ele>1248</ele>
        <time>2013-10-03T13:36:17Z</time>
      </trkpt>
      <trkpt lat="47.92641" lon="7.01731">
        <ele>1249</ele>
        <time>2013-10-03T13:36:31Z</time>
      </trkpt>
      <trkpt lat="47.92631" lon="7.01708">
        <ele>1249</ele>
        <time>2013-10-03T13:36:46Z</time>
      </trkpt>
      <trkpt lat="47.92627" lon="7.01682">
        <ele>1249</ele>
        <time>2013-10-03T13:37:01Z</time>
      </trkpt>
      <trkpt lat="47.92625" lon="7.01654">
        <ele>1247</ele>
        <time>2013-10-03T13:37:15Z</time>
      </trkpt>
      <trkpt lat="47.92627" lon="7.01626">
        <ele>1247</ele>
        <time>2013-10-03T13:37:28Z</time>
      </trkpt>
      <trkpt lat="47.92628" lon="7.01597">
        <ele>1246</ele>
        <time>2013-10-03T13:37:44Z</time>
      </trkpt>
      <trkpt lat="47.92628" lon="7.01568">
        <ele>1244</ele>
        <time>2013-10-03T13:38:01Z</time>
      </trkpt>
      <trkpt lat="47.92631" lon="7.01555">
        <ele>1244</ele>
        <time>2013-10-03T13:39:43Z</time>
      </trkpt>
      <trkpt lat="47.92635" lon="7.01542">
        <ele>1244</ele>
        <time>2013-10-03T13:39:58Z</time>
      </trkpt>
      <trkpt lat="47.9264" lon="7.0153">
        <ele>1244</ele>
        <time>2013-10-03T13:40:09Z</time>
      </trkpt>
      <trkpt lat="47.92643" lon="7.01517">
        <ele>1245</ele>
        <time>2013-10-03T13:40:19Z</time>
      </trkpt>
      <trkpt lat="47.92651" lon="7.01508">
        <ele>1247</ele>
        <time>2013-10-03T13:42:44Z</time>
      </trkpt>
      <trkpt lat="47.92657" lon="7.01498">
        <ele>1249</ele>
        <time>2013-10-03T13:42:59Z</time>
      </trkpt>
      <trkpt lat="47.9266" lon="7.01485">
        <ele>1248</ele>
        <time>2013-10-03T13:50:44Z</time>
      </trkpt>
      <trkpt lat="47.92663" lon="7.01471">
        <ele>1248</ele>
        <time>2013-10-03T13:50:56Z</time>
      </trkpt>
      <trkpt lat="47.92663" lon="7.01458">
        <ele>1248</ele>
        <time>2013-10-03T13:51:09Z</time>
      </trkpt>
      <trkpt lat="47.92655" lon="7.01448">
        <ele>1248</ele>
        <time>2013-10-03T13:51:18Z</time>
      </trkpt>
      <trkpt lat="47.92644" lon="7.01426">
        <ele>1249</ele>
        <time>2013-10-03T13:51:33Z</time>
      </trkpt>
      <trkpt lat="47.92632" lon="7.01405">
        <ele>1247</ele>
        <time>2013-10-03T13:51:49Z</time>
      </trkpt>
      <trkpt lat="47.92619" lon="7.01382">
        <ele>1245</ele>
        <time>2013-10-03T13:52:06Z</time>
      </trkpt>
      <trkpt lat="47.92607" lon="7.01362">
        <ele>1245</ele>
        <time>2013-10-03T13:52:20Z</time>
      </trkpt>
      <trkpt lat="47.92594" lon="7.01342">
        <ele>1245</ele>
        <time>2013-10-03T13:52:35Z</time>
      </trkpt>
      <trkpt lat="47.92583" lon="7.01318">
        <ele>1240</ele>
        <time>2013-10-03T13:52:50Z</time>
      </trkpt>
      <trkpt lat="47.92576" lon="7.01309">
        <ele>1238</ele>
        <time>2013-10-03T13:53:00Z</time>
      </trkpt>
      <trkpt lat="47.9256" lon="7.01293">
        <ele>1236</ele>
        <time>2013-10-03T13:53:27Z</time>
      </trkpt>
      <trkpt lat="47.9255" lon="7.01269">
        <ele>1234</ele>
        <time>2013-10-03T13:53:45Z</time>
      </trkpt>
      <trkpt lat="47.92546" lon="7.01257">
        <ele>1234</ele>
        <time>2013-10-03T13:53:57Z</time>
      </trkpt>
      <trkpt lat="47.92537" lon="7.01231">
        <ele>1228</ele>
        <time>2013-10-03T13:54:15Z</time>
      </trkpt>
      <trkpt lat="47.92529" lon="7.01206">
        <ele>1225</ele>
        <time>2013-10-03T13:54:35Z</time>
      </trkpt>
      <trkpt lat="47.92522" lon="7.01196">
        <ele>1224</ele>
        <time>2013-10-03T13:55:01Z</time>
      </trkpt>
      <trkpt lat="47.92517" lon="7.01185">
        <ele>1222</ele>
        <time>2013-10-03T13:55:16Z</time>
      </trkpt>
      <trkpt lat="47.92509" lon="7.01174">
        <ele>1219</ele>
        <time>2013-10-03T13:55:24Z</time>
      </trkpt>
      <trkpt lat="47.92496" lon="7.01155">
        <ele>1206</ele>
        <time>2013-10-03T13:55:38Z</time>
      </trkpt>
      <trkpt lat="47.92489" lon="7.01147">
        <ele>1202</ele>
        <time>2013-10-03T13:55:49Z</time>
      </trkpt>
      <trkpt lat="47.92479" lon="7.01145">
        <ele>1200</ele>
        <time>2013-10-03T13:56:01Z</time>
      </trkpt>
      <trkpt lat="47.9247" lon="7.01144">
        <ele>1198</ele>
        <time>2013-10-03T13:56:12Z</time>
      </trkpt>
      <trkpt lat="47.92461" lon="7.01148">
        <ele>1196</ele>
        <time>2013-10-03T13:56:37Z</time>
      </trkpt>
      <trkpt lat="47.92449" lon="7.01144">
        <ele>1193</ele>
        <time>2013-10-03T13:57:00Z</time>
      </trkpt>
      <trkpt lat="47.92438" lon="7.01121">
        <ele>1190</ele>
        <time>2013-10-03T13:57:35Z</time>
      </trkpt>
      <trkpt lat="47.92434" lon="7.01107">
        <ele>1188</ele>
        <time>2013-10-03T13:57:45Z</time>
      </trkpt>
      <trkpt lat="47.92433" lon="7.01094">
        <ele>1185</ele>
        <time>2013-10-03T13:57:53Z</time>
      </trkpt>
      <trkpt lat="47.92432" lon="7.01066">
        <ele>1177</ele>
        <time>2013-10-03T13:58:11Z</time>
      </trkpt>
      <trkpt lat="47.9243" lon="7.01053">
        <ele>1177</ele>
        <time>2013-10-03T13:58:31Z</time>
      </trkpt>
      <trkpt lat="47.9243" lon="7.01038">
        <ele>1176</ele>
        <time>2013-10-03T13:58:40Z</time>
      </trkpt>
      <trkpt lat="47.92434" lon="7.01024">
        <ele>1175</ele>
        <time>2013-10-03T13:59:00Z</time>
      </trkpt>
      <trkpt lat="47.92426" lon="7.01031">
        <ele>1175</ele>
        <time>2013-10-03T13:59:48Z</time>
      </trkpt>
      <trkpt lat="47.92411" lon="7.01018">
        <ele>1159</ele>
        <time>2013-10-03T14:00:13Z</time>
      </trkpt>
      <trkpt lat="47.92403" lon="7.01009">
        <ele>1159</ele>
        <time>2013-10-03T14:00:25Z</time>
      </trkpt>
      <trkpt lat="47.92394" lon="7.01002">
        <ele>1157</ele>
        <time>2013-10-03T14:00:38Z</time>
      </trkpt>
      <trkpt lat="47.92389" lon="7.0099">
        <ele>1152</ele>
        <time>2013-10-03T14:01:54Z</time>
      </trkpt>
      <trkpt lat="47.92381" lon="7.00982">
        <ele>1150</ele>
        <time>2013-10-03T14:02:19Z</time>
      </trkpt>
      <trkpt lat="47.92373" lon="7.00989">
        <ele>1149</ele>
        <time>2013-10-03T14:02:30Z</time>
      </trkpt>
      <trkpt lat="47.9236" lon="7.01009">
        <ele>1149</ele>
        <time>2013-10-03T14:02:49Z</time>
      </trkpt>
      <trkpt lat="47.92356" lon="7.00997">
        <ele>1145</ele>
        <time>2013-10-03T14:03:15Z</time>
      </trkpt>
      <trkpt lat="47.92346" lon="7.00972">
        <ele>1145</ele>
        <time>2013-10-03T14:03:34Z</time>
      </trkpt>
      <trkpt lat="47.9234" lon="7.00962">
        <ele>1145</ele>
        <time>2013-10-03T14:03:44Z</time>
      </trkpt>
      <trkpt lat="47.92328" lon="7.0094">
        <ele>1135</ele>
        <time>2013-10-03T14:03:58Z</time>
      </trkpt>
      <trkpt lat="47.9232" lon="7.00932">
        <ele>1136</ele>
        <time>2013-10-03T14:04:05Z</time>
      </trkpt>
      <trkpt lat="47.92306" lon="7.00911">
        <ele>1132</ele>
        <time>2013-10-03T14:04:23Z</time>
      </trkpt>
      <trkpt lat="47.923" lon="7.009">
        <ele>1130</ele>
        <time>2013-10-03T14:04:31Z</time>
      </trkpt>
      <trkpt lat="47.92297" lon="7.00886">
        <ele>1129</ele>
        <time>2013-10-03T14:04:41Z</time>
      </trkpt>
      <trkpt lat="47.92288" lon="7.00881">
        <ele>1128</ele>
        <time>2013-10-03T14:04:48Z</time>
      </trkpt>
      <trkpt lat="47.92279" lon="7.00876">
        <ele>1127</ele>
        <time>2013-10-03T14:04:57Z</time>
      </trkpt>
      <trkpt lat="47.92271" lon="7.00869">
        <ele>1126</ele>
        <time>2013-10-03T14:05:13Z</time>
      </trkpt>
      <trkpt lat="47.9226" lon="7.00846">
        <ele>1122</ele>
        <time>2013-10-03T14:05:28Z</time>
      </trkpt>
      <trkpt lat="47.92246" lon="7.00826">
        <ele>1116</ele>
        <time>2013-10-03T14:05:46Z</time>
      </trkpt>
      <trkpt lat="47.92238" lon="7.00818">
        <ele>1114</ele>
        <time>2013-10-03T14:05:57Z</time>
      </trkpt>
      <trkpt lat="47.92223" lon="7.00801">
        <ele>1111</ele>
        <time>2013-10-03T14:06:13Z</time>
      </trkpt>
      <trkpt lat="47.92216" lon="7.00791">
        <ele>1110</ele>
        <time>2013-10-03T14:06:23Z</time>
      </trkpt>
      <trkpt lat="47.92207" lon="7.00785">
        <ele>1109</ele>
        <time>2013-10-03T14:06:44Z</time>
      </trkpt>
      <trkpt lat="47.92199" lon="7.00792">
        <ele>1110</ele>
        <time>2013-10-03T14:06:56Z</time>
      </trkpt>
      <trkpt lat="47.9219" lon="7.00787">
        <ele>1110</ele>
        <time>2013-10-03T14:07:27Z</time>
      </trkpt>
      <trkpt lat="47.92181" lon="7.00785">
        <ele>1109</ele>
        <time>2013-10-03T14:07:35Z</time>
      </trkpt>
      <trkpt lat="47.92171" lon="7.00781">
        <ele>1109</ele>
        <time>2013-10-03T14:08:04Z</time>
      </trkpt>
      <trkpt lat="47.92152" lon="7.00785">
        <ele>1111</ele>
        <time>2013-10-03T14:08:16Z</time>
      </trkpt>
      <trkpt lat="47.92143" lon="7.00782">
        <ele>1111</ele>
        <time>2013-10-03T14:08:19Z</time>
      </trkpt>
      <trkpt lat="47.92134" lon="7.00777">
        <ele>1111</ele>
        <time>2013-10-03T14:08:23Z</time>
      </trkpt>
      <trkpt lat="47.92125" lon="7.00771">
        <ele>1111</ele>
        <time>2013-10-03T14:08:40Z</time>
      </trkpt>
      <trkpt lat="47.92117" lon="7.00764">
        <ele>1110</ele>
        <time>2013-10-03T14:08:51Z</time>
      </trkpt>
      <trkpt lat="47.92089" lon="7.00753">
        <ele>1107</ele>
        <time>2013-10-03T14:09:05Z</time>
      </trkpt>
      <trkpt lat="47.92063" lon="7.00739">
        <ele>1095</ele>
        <time>2013-10-03T14:09:20Z</time>
      </trkpt>
      <trkpt lat="47.92054" lon="7.00735">
        <ele>1093</ele>
        <time>2013-10-03T14:09:25Z</time>
      </trkpt>
      <trkpt lat="47.92044" lon="7.00733">
        <ele>1092</ele>
        <time>2013-10-03T14:09:37Z</time>
      </trkpt>
      <trkpt lat="47.92035" lon="7.00729">
        <ele>1092</ele>
        <time>2013-10-03T14:09:43Z</time>
      </trkpt>
      <trkpt lat="47.92026" lon="7.00726">
        <ele>1091</ele>
        <time>2013-10-03T14:09:56Z</time>
      </trkpt>
      <trkpt lat="47.92017" lon="7.00721">
        <ele>1091</ele>
        <time>2013-10-03T14:10:15Z</time>
      </trkpt>
      <trkpt lat="47.92009" lon="7.00717">
        <ele>1090</ele>
        <time>2013-10-03T14:10:29Z</time>
      </trkpt>
      <trkpt lat="47.91992" lon="7.00705">
        <ele>1091</ele>
        <time>2013-10-03T14:10:50Z</time>
      </trkpt>
      <trkpt lat="47.91956" lon="7.00676">
        <ele>1090</ele>
        <time>2013-10-03T14:11:06Z</time>
      </trkpt>
      <trkpt lat="47.91948" lon="7.00669">
        <ele>1090</ele>
        <time>2013-10-03T14:11:24Z</time>
      </trkpt>
      <trkpt lat="47.91942" lon="7.00657">
        <ele>1075</ele>
        <time>2013-10-03T14:11:42Z</time>
      </trkpt>
      <trkpt lat="47.91923" lon="7.00653">
        <ele>1079</ele>
        <time>2013-10-03T14:11:54Z</time>
      </trkpt>
      <trkpt lat="47.91914" lon="7.00649">
        <ele>1088</ele>
        <time>2013-10-03T14:11:58Z</time>
      </trkpt>
      <trkpt lat="47.91907" lon="7.00639">
        <ele>1087</ele>
        <time>2013-10-03T14:12:05Z</time>
      </trkpt>
      <trkpt lat="47.91893" lon="7.00615">
        <ele>1085</ele>
        <time>2013-10-03T14:12:35Z</time>
      </trkpt>
      <trkpt lat="47.91881" lon="7.0059">
        <ele>1084</ele>
        <time>2013-10-03T14:12:50Z</time>
      </trkpt>
      <trkpt lat="47.9188" lon="7.00563">
        <ele>1066</ele>
        <time>2013-10-03T14:13:04Z</time>
      </trkpt>
      <trkpt lat="47.91876" lon="7.0055">
        <ele>1065</ele>
        <time>2013-10-03T14:13:11Z</time>
      </trkpt>
      <trkpt lat="47.91874" lon="7.00522">
        <ele>1060</ele>
        <time>2013-10-03T14:13:29Z</time>
      </trkpt>
      <trkpt lat="47.91876" lon="7.00509">
        <ele>1058</ele>
        <time>2013-10-03T14:13:37Z</time>
      </trkpt>
      <trkpt lat="47.91874" lon="7.00495">
        <ele>1037</ele>
        <time>2013-10-03T14:13:50Z</time>
      </trkpt>
      <trkpt lat="47.91867" lon="7.00485">
        <ele>1038</ele>
        <time>2013-10-03T14:15:19Z</time>
      </trkpt>
      <trkpt lat="47.9185" lon="7.00473">
        <ele>1039</ele>
        <time>2013-10-03T14:15:32Z</time>
      </trkpt>
      <trkpt lat="47.9184" lon="7.00473">
        <ele>1040</ele>
        <time>2013-10-03T14:15:40Z</time>
      </trkpt>
      <trkpt lat="47.91823" lon="7.00458">
        <ele>1050</ele>
        <time>2013-10-03T14:15:50Z</time>
      </trkpt>
      <trkpt lat="47.91815" lon="7.00453">
        <ele>1049</ele>
        <time>2013-10-03T14:16:11Z</time>
      </trkpt>
      <trkpt lat="47.91804" lon="7.00428">
        <ele>1045</ele>
        <time>2013-10-03T14:16:26Z</time>
      </trkpt>
      <trkpt lat="47.91795" lon="7.00421">
        <ele>1046</ele>
        <time>2013-10-03T14:17:01Z</time>
      </trkpt>
      <trkpt lat="47.9179" lon="7.00408">
        <ele>1026</ele>
        <time>2013-10-03T14:17:08Z</time>
      </trkpt>
      <trkpt lat="47.91781" lon="7.00406">
        <ele>1028</ele>
        <time>2013-10-03T14:17:20Z</time>
      </trkpt>
      <trkpt lat="47.91771" lon="7.00402">
        <ele>1030</ele>
        <time>2013-10-03T14:18:20Z</time>
      </trkpt>
      <trkpt lat="47.91762" lon="7.00397">
        <ele>1031</ele>
        <time>2013-10-03T14:18:30Z</time>
      </trkpt>
      <trkpt lat="47.91755" lon="7.00389">
        <ele>1029</ele>
        <time>2013-10-03T14:18:45Z</time>
      </trkpt>
      <trkpt lat="47.91746" lon="7.00395">
        <ele>1036</ele>
        <time>2013-10-03T14:19:05Z</time>
      </trkpt>
      <trkpt lat="47.91737" lon="7.00393">
        <ele>1034</ele>
        <time>2013-10-03T14:19:54Z</time>
      </trkpt>
      <trkpt lat="47.91731" lon="7.00379">
        <ele>1030</ele>
        <time>2013-10-03T14:20:04Z</time>
      </trkpt>
      <trkpt lat="47.91729" lon="7.00366">
        <ele>1026</ele>
        <time>2013-10-03T14:20:38Z</time>
      </trkpt>
      <trkpt lat="47.91738" lon="7.0036">
        <ele>1025</ele>
        <time>2013-10-03T14:20:52Z</time>
      </trkpt>
      <trkpt lat="47.91752" lon="7.00341">
        <ele>1016</ele>
        <time>2013-10-03T14:21:02Z</time>
      </trkpt>
      <trkpt lat="47.91758" lon="7.0033">
        <ele>1006</ele>
        <time>2013-10-03T14:21:15Z</time>
      </trkpt>
      <trkpt lat="47.91748" lon="7.00327">
        <ele>1009</ele>
        <time>2013-10-03T14:21:35Z</time>
      </trkpt>
      <trkpt lat="47.9173" lon="7.00327">
        <ele>1001</ele>
        <time>2013-10-03T14:21:48Z</time>
      </trkpt>
      <trkpt lat="47.91711" lon="7.00334">
        <ele>1022</ele>
        <time>2013-10-03T14:22:03Z</time>
      </trkpt>
      <trkpt lat="47.91702" lon="7.00341">
        <ele>1022</ele>
        <time>2013-10-03T14:22:24Z</time>
      </trkpt>
      <trkpt lat="47.91693" lon="7.00346">
        <ele>1021</ele>
        <time>2013-10-03T14:22:31Z</time>
      </trkpt>
      <trkpt lat="47.91684" lon="7.00347">
        <ele>1020</ele>
        <time>2013-10-03T14:22:37Z</time>
      </trkpt>
      <trkpt lat="47.91663" lon="7.00344">
        <ele>1016</ele>
        <time>2013-10-03T14:22:47Z</time>
      </trkpt>
      <trkpt lat="47.91654" lon="7.00344">
        <ele>1018</ele>
        <time>2013-10-03T14:22:53Z</time>
      </trkpt>
      <trkpt lat="47.91637" lon="7.00348">
        <ele>1023</ele>
        <time>2013-10-03T14:23:25Z</time>
      </trkpt>
      <trkpt lat="47.91616" lon="7.00345">
        <ele>1025</ele>
        <time>2013-10-03T14:23:37Z</time>
      </trkpt>
      <trkpt lat="47.91598" lon="7.00337">
        <ele>1022</ele>
        <time>2013-10-03T14:24:00Z</time>
      </trkpt>
      <trkpt lat="47.9159" lon="7.00327">
        <ele>1009</ele>
        <time>2013-10-03T14:24:11Z</time>
      </trkpt>
      <trkpt lat="47.91584" lon="7.00315">
        <ele>1004</ele>
        <time>2013-10-03T14:24:27Z</time>
      </trkpt>
      <trkpt lat="47.91576" lon="7.00307">
        <ele>1008</ele>
        <time>2013-10-03T14:24:45Z</time>
      </trkpt>
      <trkpt lat="47.91569" lon="7.00298">
        <ele>1006</ele>
        <time>2013-10-03T14:25:09Z</time>
      </trkpt>
      <trkpt lat="47.9156" lon="7.00274">
        <ele>1000</ele>
        <time>2013-10-03T14:25:50Z</time>
      </trkpt>
      <trkpt lat="47.91549" lon="7.0025">
        <ele>978</ele>
        <time>2013-10-03T14:26:05Z</time>
      </trkpt>
      <trkpt lat="47.91538" lon="7.00228">
        <ele>977</ele>
        <time>2013-10-03T14:26:16Z</time>
      </trkpt>
      <trkpt lat="47.91519" lon="7.00222">
        <ele>978</ele>
        <time>2013-10-03T14:26:29Z</time>
      </trkpt>
      <trkpt lat="47.91508" lon="7.00228">
        <ele>981</ele>
        <time>2013-10-03T14:26:53Z</time>
      </trkpt>
      <trkpt lat="47.91497" lon="7.00226">
        <ele>980</ele>
        <time>2013-10-03T14:26:55Z</time>
      </trkpt>
      <trkpt lat="47.91488" lon="7.00232">
        <ele>981</ele>
        <time>2013-10-03T14:27:01Z</time>
      </trkpt>
      <trkpt lat="47.91469" lon="7.00236">
        <ele>978</ele>
        <time>2013-10-03T14:27:14Z</time>
      </trkpt>
      <trkpt lat="47.91463" lon="7.00246">
        <ele>978</ele>
        <time>2013-10-03T14:27:23Z</time>
      </trkpt>
      <trkpt lat="47.91445" lon="7.00242">
        <ele>977</ele>
        <time>2013-10-03T14:27:34Z</time>
      </trkpt>
      <trkpt lat="47.91436" lon="7.00245">
        <ele>978</ele>
        <time>2013-10-03T14:27:45Z</time>
      </trkpt>
      <trkpt lat="47.91419" lon="7.00253">
        <ele>988</ele>
        <time>2013-10-03T14:28:07Z</time>
      </trkpt>
      <trkpt lat="47.9141" lon="7.00245">
        <ele>980</ele>
        <time>2013-10-03T14:28:36Z</time>
      </trkpt>
      <trkpt lat="47.91389" lon="7.0024">
        <ele>974</ele>
        <time>2013-10-03T14:28:49Z</time>
      </trkpt>
      <trkpt lat="47.9138" lon="7.00239">
        <ele>974</ele>
        <time>2013-10-03T14:28:54Z</time>
      </trkpt>
      <trkpt lat="47.9137" lon="7.00233">
        <ele>974</ele>
        <time>2013-10-03T14:29:33Z</time>
      </trkpt>
      <trkpt lat="47.91355" lon="7.00215">
        <ele>971</ele>
        <time>2013-10-03T14:29:43Z</time>
      </trkpt>
      <trkpt lat="47.91339" lon="7.00202">
        <ele>967</ele>
        <time>2013-10-03T14:30:02Z</time>
      </trkpt>
      <trkpt lat="47.91325" lon="7.0018">
        <ele>964</ele>
        <time>2013-10-03T14:30:28Z</time>
      </trkpt>
      <trkpt lat="47.91302" lon="7.00154">
        <ele>947</ele>
        <time>2013-10-03T14:30:37Z</time>
      </trkpt>
      <trkpt lat="47.91296" lon="7.00144">
        <ele>947</ele>
        <time>2013-10-03T14:30:43Z</time>
      </trkpt>
      <trkpt lat="47.91278" lon="7.0013">
        <ele>946</ele>
        <time>2013-10-03T14:30:59Z</time>
      </trkpt>
      <trkpt lat="47.91269" lon="7.00125">
        <ele>946</ele>
        <time>2013-10-03T14:31:06Z</time>
      </trkpt>
      <trkpt lat="47.91251" lon="7.00116">
        <ele>945</ele>
        <time>2013-10-03T14:31:22Z</time>
      </trkpt>
      <trkpt lat="47.91231" lon="7.00111">
        <ele>946</ele>
        <time>2013-10-03T14:31:38Z</time>
      </trkpt>
      <trkpt lat="47.91222" lon="7.00109">
        <ele>946</ele>
        <time>2013-10-03T14:31:49Z</time>
      </trkpt>
      <trkpt lat="47.91213" lon="7.00107">
        <ele>946</ele>
        <time>2013-10-03T14:31:57Z</time>
      </trkpt>
      <trkpt lat="47.91194" lon="7.00106">
        <ele>944</ele>
        <time>2013-10-03T14:32:18Z</time>
      </trkpt>
      <trkpt lat="47.91184" lon="7.00105">
        <ele>943</ele>
        <time>2013-10-03T14:32:29Z</time>
      </trkpt>
      <trkpt lat="47.91175" lon="7.00106">
        <ele>942</ele>
        <time>2013-10-03T14:32:41Z</time>
      </trkpt>
      <trkpt lat="47.91165" lon="7.00108">
        <ele>932</ele>
        <time>2013-10-03T14:32:48Z</time>
      </trkpt>
      <trkpt lat="47.91146" lon="7.00104">
        <ele>931</ele>
        <time>2013-10-03T14:33:04Z</time>
      </trkpt>
      <trkpt lat="47.91125" lon="7.00098">
        <ele>927</ele>
        <time>2013-10-03T14:33:24Z</time>
      </trkpt>
      <trkpt lat="47.91108" lon="7.00107">
        <ele>925</ele>
        <time>2013-10-03T14:33:57Z</time>
      </trkpt>
      <trkpt lat="47.911" lon="7.00113">
        <ele>925</ele>
        <time>2013-10-03T14:34:09Z</time>
      </trkpt>
      <trkpt lat="47.9109" lon="7.00117">
        <ele>925</ele>
        <time>2013-10-03T14:34:20Z</time>
      </trkpt>
      <trkpt lat="47.91081" lon="7.0012">
        <ele>913</ele>
        <time>2013-10-03T14:34:25Z</time>
      </trkpt>
      <trkpt lat="47.91075" lon="7.00134">
        <ele>916</ele>
        <time>2013-10-03T14:34:31Z</time>
      </trkpt>
      <trkpt lat="47.9107" lon="7.00145">
        <ele>919</ele>
        <time>2013-10-03T14:34:42Z</time>
      </trkpt>
      <trkpt lat="47.91065" lon="7.00158">
        <ele>921</ele>
        <time>2013-10-03T14:34:50Z</time>
      </trkpt>
      <trkpt lat="47.91061" lon="7.0017">
        <ele>933</ele>
        <time>2013-10-03T14:34:57Z</time>
      </trkpt>
      <trkpt lat="47.91042" lon="7.00168">
        <ele>931</ele>
        <time>2013-10-03T14:35:13Z</time>
      </trkpt>
      <trkpt lat="47.91033" lon="7.00172">
        <ele>930</ele>
        <time>2013-10-03T14:35:30Z</time>
      </trkpt>
      <trkpt lat="47.91024" lon="7.00167">
        <ele>928</ele>
        <time>2013-10-03T14:35:33Z</time>
      </trkpt>
      <trkpt lat="47.91007" lon="7.00155">
        <ele>914</ele>
        <time>2013-10-03T14:35:42Z</time>
      </trkpt>
      <trkpt lat="47.90996" lon="7.00158">
        <ele>918</ele>
        <time>2013-10-03T14:35:52Z</time>
      </trkpt>
      <trkpt lat="47.90987" lon="7.00159">
        <ele>919</ele>
        <time>2013-10-03T14:36:01Z</time>
      </trkpt>
      <trkpt lat="47.9098" lon="7.00148">
        <ele>921</ele>
        <time>2013-10-03T14:36:11Z</time>
      </trkpt>
      <trkpt lat="47.90977" lon="7.0012">
        <ele>919</ele>
        <time>2013-10-03T14:36:25Z</time>
      </trkpt>
      <trkpt lat="47.90978" lon="7.00105">
        <ele>916</ele>
        <time>2013-10-03T14:36:32Z</time>
      </trkpt>
      <trkpt lat="47.90986" lon="7.0008">
        <ele>902</ele>
        <time>2013-10-03T14:37:05Z</time>
      </trkpt>
      <trkpt lat="47.90978" lon="7.00053">
        <ele>904</ele>
        <time>2013-10-03T14:37:15Z</time>
      </trkpt>
      <trkpt lat="47.90974" lon="7.00026">
        <ele>902</ele>
        <time>2013-10-03T14:37:43Z</time>
      </trkpt>
      <trkpt lat="47.90971" lon="7.00013">
        <ele>901</ele>
        <time>2013-10-03T14:37:47Z</time>
      </trkpt>
      <trkpt lat="47.90965" lon="6.99999">
        <ele>895</ele>
        <time>2013-10-03T14:37:52Z</time>
      </trkpt>
      <trkpt lat="47.90962" lon="6.99971">
        <ele>896</ele>
        <time>2013-10-03T14:38:07Z</time>
      </trkpt>
      <trkpt lat="47.90962" lon="6.99955">
        <ele>895</ele>
        <time>2013-10-03T14:38:35Z</time>
      </trkpt>
      <trkpt lat="47.9096" lon="6.99941">
        <ele>895</ele>
        <time>2013-10-03T14:38:38Z</time>
      </trkpt>
      <trkpt lat="47.90967" lon="6.99915">
        <ele>884</ele>
        <time>2013-10-03T14:38:49Z</time>
      </trkpt>
      <trkpt lat="47.90968" lon="6.999">
        <ele>883</ele>
        <time>2013-10-03T14:38:57Z</time>
      </trkpt>
      <trkpt lat="47.90966" lon="6.99872">
        <ele>882</ele>
        <time>2013-10-03T14:39:12Z</time>
      </trkpt>
      <trkpt lat="47.90967" lon="6.99857">
        <ele>880</ele>
        <time>2013-10-03T14:39:20Z</time>
      </trkpt>
      <trkpt lat="47.90968" lon="6.99828">
        <ele>869</ele>
        <time>2013-10-03T14:39:34Z</time>
      </trkpt>
      <trkpt lat="47.90983" lon="6.99849">
        <ele>876</ele>
        <time>2013-10-03T14:39:46Z</time>
      </trkpt>
      <trkpt lat="47.90991" lon="6.99874">
        <ele>878</ele>
        <time>2013-10-03T14:39:58Z</time>
      </trkpt>
      <trkpt lat="47.90998" lon="6.99887">
        <ele>878</ele>
        <time>2013-10-03T14:40:03Z</time>
      </trkpt>
      <trkpt lat="47.90999" lon="6.99902">
        <ele>877</ele>
        <time>2013-10-03T14:40:33Z</time>
      </trkpt>
      <trkpt lat="47.91013" lon="6.99926">
        <ele>869</ele>
        <time>2013-10-03T14:40:40Z</time>
      </trkpt>
      <trkpt lat="47.91013" lon="6.99941">
        <ele>869</ele>
        <time>2013-10-03T14:40:48Z</time>
      </trkpt>
      <trkpt lat="47.91014" lon="6.99959">
        <ele>869</ele>
        <time>2013-10-03T14:41:14Z</time>
      </trkpt>
      <trkpt lat="47.91034" lon="6.99978">
        <ele>870</ele>
        <time>2013-10-03T14:41:48Z</time>
      </trkpt>
      <trkpt lat="47.91039" lon="6.99965">
        <ele>868</ele>
        <time>2013-10-03T14:41:58Z</time>
      </trkpt>
      <trkpt lat="47.91041" lon="6.99952">
        <ele>866</ele>
        <time>2013-10-03T14:42:04Z</time>
      </trkpt>
      <trkpt lat="47.91047" lon="6.99942">
        <ele>864</ele>
        <time>2013-10-03T14:42:14Z</time>
      </trkpt>
      <trkpt lat="47.91055" lon="6.99936">
        <ele>862</ele>
        <time>2013-10-03T14:42:24Z</time>
      </trkpt>
      <trkpt lat="47.91067" lon="6.99912">
        <ele>847</ele>
        <time>2013-10-03T14:42:38Z</time>
      </trkpt>
      <trkpt lat="47.91083" lon="6.99895">
        <ele>837</ele>
        <time>2013-10-03T14:42:51Z</time>
      </trkpt>
      <trkpt lat="47.91093" lon="6.99891">
        <ele>836</ele>
        <time>2013-10-03T14:43:01Z</time>
      </trkpt>
      <trkpt lat="47.91102" lon="6.99889">
        <ele>835</ele>
        <time>2013-10-03T14:43:11Z</time>
      </trkpt>
      <trkpt lat="47.91112" lon="6.99884">
        <ele>834</ele>
        <time>2013-10-03T14:43:25Z</time>
      </trkpt>
      <trkpt lat="47.91118" lon="6.99874">
        <ele>832</ele>
        <time>2013-10-03T14:43:47Z</time>
      </trkpt>
      <trkpt lat="47.91135" lon="6.99863">
        <ele>830</ele>
        <time>2013-10-03T14:44:06Z</time>
      </trkpt>
      <trkpt lat="47.91143" lon="6.99857">
        <ele>828</ele>
        <time>2013-10-03T14:45:16Z</time>
      </trkpt>
      <trkpt lat="47.91161" lon="6.99853">
        <ele>824</ele>
        <time>2013-10-03T14:45:32Z</time>
      </trkpt>
      <trkpt lat="47.91171" lon="6.99851">
        <ele>824</ele>
        <time>2013-10-03T14:45:39Z</time>
      </trkpt>
      <trkpt lat="47.9119" lon="6.99846">
        <ele>827</ele>
        <time>2013-10-03T14:45:56Z</time>
      </trkpt>
      <trkpt lat="47.91207" lon="6.99835">
        <ele>828</ele>
        <time>2013-10-03T14:46:10Z</time>
      </trkpt>
      <trkpt lat="47.91198" lon="6.99841">
        <ele>828</ele>
        <time>2013-10-03T14:46:31Z</time>
      </trkpt>
      <trkpt lat="47.91179" lon="6.99839">
        <ele>821</ele>
        <time>2013-10-03T14:46:40Z</time>
      </trkpt>
      <trkpt lat="47.9117" lon="6.99836">
        <ele>815</ele>
        <time>2013-10-03T14:46:50Z</time>
      </trkpt>
      <trkpt lat="47.91161" lon="6.99831">
        <ele>810</ele>
        <time>2013-10-03T14:47:03Z</time>
      </trkpt>
      <trkpt lat="47.91141" lon="6.99825">
        <ele>810</ele>
        <time>2013-10-03T14:47:15Z</time>
      </trkpt>
      <trkpt lat="47.91132" lon="6.99827">
        <ele>810</ele>
        <time>2013-10-03T14:47:21Z</time>
      </trkpt>
      <trkpt lat="47.91116" lon="6.9984">
        <ele>827</ele>
        <time>2013-10-03T14:47:44Z</time>
      </trkpt>
      <trkpt lat="47.91125" lon="6.99822">
        <ele>811</ele>
        <time>2013-10-03T14:48:30Z</time>
      </trkpt>
      <trkpt lat="47.91135" lon="6.99817">
        <ele>810</ele>
        <time>2013-10-03T14:48:36Z</time>
      </trkpt>
      <trkpt lat="47.91138" lon="6.99804">
        <ele>808</ele>
        <time>2013-10-03T14:48:48Z</time>
      </trkpt>
      <trkpt lat="47.91148" lon="6.99808">
        <ele>808</ele>
        <time>2013-10-03T14:49:35Z</time>
      </trkpt>
      <trkpt lat="47.91155" lon="6.998">
        <ele>807</ele>
        <time>2013-10-03T14:49:42Z</time>
      </trkpt>
      <trkpt lat="47.91174" lon="6.99798">
        <ele>800</ele>
        <time>2013-10-03T14:49:56Z</time>
      </trkpt>
      <trkpt lat="47.9118" lon="6.99788">
        <ele>798</ele>
        <time>2013-10-03T14:50:08Z</time>
      </trkpt>
      <trkpt lat="47.91187" lon="6.99777">
        <ele>796</ele>
        <time>2013-10-03T14:50:15Z</time>
      </trkpt>
      <trkpt lat="47.91197" lon="6.99777">
        <ele>796</ele>
        <time>2013-10-03T14:50:30Z</time>
      </trkpt>
      <trkpt lat="47.91216" lon="6.9977">
        <ele>794</ele>
        <time>2013-10-03T14:50:46Z</time>
      </trkpt>
      <trkpt lat="47.91234" lon="6.99768">
        <ele>791</ele>
        <time>2013-10-03T14:51:02Z</time>
      </trkpt>
      <trkpt lat="47.91244" lon="6.99765">
        <ele>788</ele>
        <time>2013-10-03T14:51:14Z</time>
      </trkpt>
      <trkpt lat="47.91262" lon="6.99757">
        <ele>786</ele>
        <time>2013-10-03T14:51:32Z</time>
      </trkpt>
      <trkpt lat="47.91271" lon="6.99752">
        <ele>788</ele>
        <time>2013-10-03T14:51:43Z</time>
      </trkpt>
      <trkpt lat="47.91279" lon="6.99744">
        <ele>770</ele>
        <time>2013-10-03T14:51:53Z</time>
      </trkpt>
      <trkpt lat="47.91288" lon="6.99742">
        <ele>769</ele>
        <time>2013-10-03T14:52:09Z</time>
      </trkpt>
      <trkpt lat="47.91298" lon="6.9974">
        <ele>769</ele>
        <time>2013-10-03T14:52:34Z</time>
      </trkpt>
      <trkpt lat="47.91315" lon="6.99749">
        <ele>771</ele>
        <time>2013-10-03T14:52:44Z</time>
      </trkpt>
      <trkpt lat="47.91335" lon="6.99747">
        <ele>777</ele>
        <time>2013-10-03T14:53:01Z</time>
      </trkpt>
      <trkpt lat="47.91345" lon="6.99751">
        <ele>786</ele>
        <time>2013-10-03T14:53:12Z</time>
      </trkpt>
      <trkpt lat="47.91354" lon="6.99754">
        <ele>790</ele>
        <time>2013-10-03T14:53:22Z</time>
      </trkpt>
      <trkpt lat="47.91361" lon="6.99741">
        <ele>774</ele>
        <time>2013-10-03T14:53:43Z</time>
      </trkpt>
      <trkpt lat="47.91367" lon="6.99728">
        <ele>773</ele>
        <time>2013-10-03T14:53:49Z</time>
      </trkpt>
      <trkpt lat="47.91369" lon="6.99715">
        <ele>771</ele>
        <time>2013-10-03T14:53:58Z</time>
      </trkpt>
      <trkpt lat="47.9137" lon="6.99702">
        <ele>769</ele>
        <time>2013-10-03T14:54:09Z</time>
      </trkpt>
      <trkpt lat="47.91371" lon="6.99687">
        <ele>767</ele>
        <time>2013-10-03T14:54:20Z</time>
      </trkpt>
      <trkpt lat="47.91374" lon="6.99674">
        <ele>766</ele>
        <time>2013-10-03T14:54:30Z</time>
      </trkpt>
      <trkpt lat="47.91381" lon="6.99649">
        <ele>749</ele>
        <time>2013-10-03T14:54:51Z</time>
      </trkpt>
      <trkpt lat="47.91387" lon="6.99638">
        <ele>748</ele>
        <time>2013-10-03T14:55:01Z</time>
      </trkpt>
      <trkpt lat="47.9139" lon="6.99625">
        <ele>746</ele>
        <time>2013-10-03T14:55:06Z</time>
      </trkpt>
      <trkpt lat="47.91401" lon="6.99606">
        <ele>745</ele>
        <time>2013-10-03T14:55:20Z</time>
      </trkpt>
      <trkpt lat="47.91417" lon="6.99597">
        <ele>755</ele>
        <time>2013-10-03T14:55:40Z</time>
      </trkpt>
      <trkpt lat="47.91425" lon="6.99592">
        <ele>754</ele>
        <time>2013-10-03T14:55:50Z</time>
      </trkpt>
      <trkpt lat="47.91428" lon="6.99579">
        <ele>744</ele>
        <time>2013-10-03T14:56:01Z</time>
      </trkpt>
      <trkpt lat="47.91436" lon="6.99572">
        <ele>745</ele>
        <time>2013-10-03T14:56:16Z</time>
      </trkpt>
      <trkpt lat="47.9144" lon="6.99558">
        <ele>745</ele>
        <time>2013-10-03T14:56:26Z</time>
      </trkpt>
      <trkpt lat="47.91447" lon="6.99548">
        <ele>744</ele>
        <time>2013-10-03T14:57:12Z</time>
      </trkpt>
      <trkpt lat="47.9146" lon="6.99526">
        <ele>743</ele>
        <time>2013-10-03T14:57:25Z</time>
      </trkpt>
      <trkpt lat="47.91467" lon="6.99516">
        <ele>743</ele>
        <time>2013-10-03T14:57:30Z</time>
      </trkpt>
      <trkpt lat="47.91472" lon="6.99504">
        <ele>743</ele>
        <time>2013-10-03T14:57:38Z</time>
      </trkpt>
      <trkpt lat="47.9148" lon="6.99497">
        <ele>730</ele>
        <time>2013-10-03T14:57:46Z</time>
      </trkpt>
      <trkpt lat="47.91488" lon="6.99489">
        <ele>732</ele>
        <time>2013-10-03T14:57:58Z</time>
      </trkpt>
      <trkpt lat="47.91497" lon="6.99484">
        <ele>732</ele>
        <time>2013-10-03T14:58:07Z</time>
      </trkpt>
      <trkpt lat="47.91507" lon="6.99462">
        <ele>735</ele>
        <time>2013-10-03T14:58:21Z</time>
      </trkpt>
      <trkpt lat="47.91516" lon="6.99455">
        <ele>734</ele>
        <time>2013-10-03T14:58:29Z</time>
      </trkpt>
      <trkpt lat="47.91523" lon="6.99446">
        <ele>733</ele>
        <time>2013-10-03T14:58:37Z</time>
      </trkpt>
      <trkpt lat="47.91531" lon="6.99425">
        <ele>730</ele>
        <time>2013-10-03T14:59:00Z</time>
      </trkpt>
      <trkpt lat="47.91523" lon="6.99435">
        <ele>730</ele>
        <time>2013-10-03T14:59:12Z</time>
      </trkpt>
      <trkpt lat="47.91493" lon="6.9944">
        <ele>718</ele>
        <time>2013-10-03T14:59:24Z</time>
      </trkpt>
      <trkpt lat="47.91483" lon="6.99443">
        <ele>718</ele>
        <time>2013-10-03T14:59:37Z</time>
      </trkpt>
      <trkpt lat="47.91475" lon="6.99453">
        <ele>719</ele>
        <time>2013-10-03T14:59:44Z</time>
      </trkpt>
      <trkpt lat="47.9146" lon="6.99464">
        <ele>718</ele>
        <time>2013-10-03T14:59:57Z</time>
      </trkpt>
      <trkpt lat="47.91454" lon="6.99475">
        <ele>719</ele>
        <time>2013-10-03T15:00:05Z</time>
      </trkpt>
      <trkpt lat="47.91444" lon="6.99475">
        <ele>718</ele>
        <time>2013-10-03T15:00:13Z</time>
      </trkpt>
      <trkpt lat="47.91435" lon="6.99481">
        <ele>718</ele>
        <time>2013-10-03T15:00:21Z</time>
      </trkpt>
      <trkpt lat="47.91427" lon="6.99488">
        <ele>718</ele>
        <time>2013-10-03T15:00:26Z</time>
      </trkpt>
      <trkpt lat="47.91418" lon="6.99493">
        <ele>718</ele>
        <time>2013-10-03T15:00:31Z</time>
      </trkpt>
      <trkpt lat="47.91401" lon="6.99504">
        <ele>720</ele>
        <time>2013-10-03T15:00:46Z</time>
      </trkpt>
      <trkpt lat="47.91393" lon="6.99512">
        <ele>720</ele>
        <time>2013-10-03T15:00:53Z</time>
      </trkpt>
      <trkpt lat="47.91392" lon="6.99527">
        <ele>722</ele>
        <time>2013-10-03T15:01:10Z</time>
      </trkpt>
      <trkpt lat="47.91377" lon="6.99544">
        <ele>723</ele>
        <time>2013-10-03T15:01:26Z</time>
      </trkpt>
      <trkpt lat="47.91368" lon="6.99549">
        <ele>722</ele>
        <time>2013-10-03T15:01:32Z</time>
      </trkpt>
      <trkpt lat="47.9136" lon="6.99558">
        <ele>722</ele>
        <time>2013-10-03T15:01:41Z</time>
      </trkpt>
      <trkpt lat="47.91352" lon="6.99566">
        <ele>722</ele>
        <time>2013-10-03T15:01:50Z</time>
      </trkpt>
      <trkpt lat="47.91336" lon="6.99579">
        <ele>721</ele>
        <time>2013-10-03T15:02:03Z</time>
      </trkpt>
      <trkpt lat="47.91327" lon="6.99584">
        <ele>726</ele>
        <time>2013-10-03T15:02:09Z</time>
      </trkpt>
      <trkpt lat="47.91322" lon="6.99566">
        <ele>728</ele>
        <time>2013-10-03T15:02:26Z</time>
      </trkpt>
      <trkpt lat="47.9133" lon="6.99559">
        <ele>728</ele>
        <time>2013-10-03T15:02:45Z</time>
      </trkpt>
      <trkpt lat="47.91342" lon="6.99539">
        <ele>719</ele>
        <time>2013-10-03T15:03:01Z</time>
      </trkpt>
      <trkpt lat="47.91347" lon="6.99525">
        <ele>717</ele>
        <time>2013-10-03T15:03:19Z</time>
      </trkpt>
      <trkpt lat="47.91355" lon="6.99499">
        <ele>706</ele>
        <time>2013-10-03T15:03:31Z</time>
      </trkpt>
      <trkpt lat="47.91361" lon="6.99488">
        <ele>705</ele>
        <time>2013-10-03T15:03:37Z</time>
      </trkpt>
      <trkpt lat="47.91376" lon="6.99471">
        <ele>704</ele>
        <time>2013-10-03T15:03:52Z</time>
      </trkpt>
      <trkpt lat="47.91387" lon="6.9945">
        <ele>702</ele>
        <time>2013-10-03T15:04:09Z</time>
      </trkpt>
      <trkpt lat="47.91404" lon="6.99431">
        <ele>698</ele>
        <time>2013-10-03T15:04:21Z</time>
      </trkpt>
      <trkpt lat="47.91413" lon="6.99425">
        <ele>695</ele>
        <time>2013-10-03T15:04:27Z</time>
      </trkpt>
      <trkpt lat="47.91417" lon="6.99413">
        <ele>690</ele>
        <time>2013-10-03T15:04:39Z</time>
      </trkpt>
      <trkpt lat="47.91423" lon="6.994">
        <ele>689</ele>
        <time>2013-10-03T15:04:50Z</time>
      </trkpt>
      <trkpt lat="47.91441" lon="6.99396">
        <ele>690</ele>
        <time>2013-10-03T15:05:05Z</time>
      </trkpt>
      <trkpt lat="47.9145" lon="6.9937">
        <ele>687</ele>
        <time>2013-10-03T15:05:17Z</time>
      </trkpt>
      <trkpt lat="47.9147" lon="6.99362">
        <ele>688</ele>
        <time>2013-10-03T15:05:31Z</time>
      </trkpt>
      <trkpt lat="47.91476" lon="6.99351">
        <ele>688</ele>
        <time>2013-10-03T15:05:43Z</time>
      </trkpt>
      <trkpt lat="47.91479" lon="6.99339">
        <ele>687</ele>
        <time>2013-10-03T15:05:49Z</time>
      </trkpt>
      <trkpt lat="47.91487" lon="6.9933">
        <ele>677</ele>
        <time>2013-10-03T15:05:59Z</time>
      </trkpt>
      <trkpt lat="47.91493" lon="6.99318">
        <ele>675</ele>
        <time>2013-10-03T15:06:09Z</time>
      </trkpt>
      <trkpt lat="47.91501" lon="6.9931">
        <ele>676</ele>
        <time>2013-10-03T15:06:18Z</time>
      </trkpt>
      <trkpt lat="47.91509" lon="6.99303">
        <ele>674</ele>
        <time>2013-10-03T15:06:27Z</time>
      </trkpt>
      <trkpt lat="47.915" lon="6.99309">
        <ele>676</ele>
        <time>2013-10-03T15:06:57Z</time>
      </trkpt>
      <trkpt lat="47.91486" lon="6.99326">
        <ele>676</ele>
        <time>2013-10-03T15:07:13Z</time>
      </trkpt>
      <trkpt lat="47.91479" lon="6.99347">
        <ele>688</ele>
        <time>2013-10-03T15:07:28Z</time>
      </trkpt>
      <trkpt lat="47.91464" lon="6.99364">
        <ele>688</ele>
        <time>2013-10-03T15:07:40Z</time>
      </trkpt>
      <trkpt lat="47.91458" lon="6.99374">
        <ele>689</ele>
        <time>2013-10-03T15:07:47Z</time>
      </trkpt>
      <trkpt lat="47.91451" lon="6.99384">
        <ele>689</ele>
        <time>2013-10-03T15:07:58Z</time>
      </trkpt>
      <trkpt lat="47.91443" lon="6.99389">
        <ele>689</ele>
        <time>2013-10-03T15:08:10Z</time>
      </trkpt>
      <trkpt lat="47.91434" lon="6.99394">
        <ele>689</ele>
        <time>2013-10-03T15:08:21Z</time>
      </trkpt>
      <trkpt lat="47.91442" lon="6.99402">
        <ele>691</ele>
        <time>2013-10-03T15:08:31Z</time>
      </trkpt>
      <trkpt lat="47.9144" lon="6.99387">
        <ele>689</ele>
        <time>2013-10-03T15:09:22Z</time>
      </trkpt>
      <trkpt lat="47.91444" lon="6.99375">
        <ele>687</ele>
        <time>2013-10-03T15:09:35Z</time>
      </trkpt>
      <trkpt lat="47.91435" lon="6.99369">
        <ele>684</ele>
        <time>2013-10-03T15:09:59Z</time>
      </trkpt>
      <trkpt lat="47.91426" lon="6.99372">
        <ele>684</ele>
        <time>2013-10-03T15:10:13Z</time>
      </trkpt>
      <trkpt lat="47.91417" lon="6.99373">
        <ele>681</ele>
        <time>2013-10-03T15:10:24Z</time>
      </trkpt>
      <trkpt lat="47.91408" lon="6.99375">
        <ele>682</ele>
        <time>2013-10-03T15:10:31Z</time>
      </trkpt>
      <trkpt lat="47.9139" lon="6.99384">
        <ele>685</ele>
        <time>2013-10-03T15:10:51Z</time>
      </trkpt>
      <trkpt lat="47.91373" lon="6.99397">
        <ele>687</ele>
        <time>2013-10-03T15:11:02Z</time>
      </trkpt>
      <trkpt lat="47.91365" lon="6.99389">
        <ele>687</ele>
        <time>2013-10-03T15:11:09Z</time>
      </trkpt>
      <trkpt lat="47.91376" lon="6.99375">
        <ele>685</ele>
        <time>2013-10-03T15:11:32Z</time>
      </trkpt>
      <trkpt lat="47.91384" lon="6.99365">
        <ele>683</ele>
        <time>2013-10-03T15:11:42Z</time>
      </trkpt>
      <trkpt lat="47.91391" lon="6.99356">
        <ele>680</ele>
        <time>2013-10-03T15:11:51Z</time>
      </trkpt>
      <trkpt lat="47.914" lon="6.9935">
        <ele>677</ele>
        <time>2013-10-03T15:12:13Z</time>
      </trkpt>
      <trkpt lat="47.9141" lon="6.99349">
        <ele>674</ele>
        <time>2013-10-03T15:12:19Z</time>
      </trkpt>
      <trkpt lat="47.91424" lon="6.99327">
        <ele>664</ele>
        <time>2013-10-03T15:12:32Z</time>
      </trkpt>
      <trkpt lat="47.9143" lon="6.99316">
        <ele>664</ele>
        <time>2013-10-03T15:12:36Z</time>
      </trkpt>
      <trkpt lat="47.91441" lon="6.99295">
        <ele>663</ele>
        <time>2013-10-03T15:12:54Z</time>
      </trkpt>
      <trkpt lat="47.91455" lon="6.9928">
        <ele>662</ele>
        <time>2013-10-03T15:13:07Z</time>
      </trkpt>
      <trkpt lat="47.91465" lon="6.99275">
        <ele>662</ele>
        <time>2013-10-03T15:13:18Z</time>
      </trkpt>
      <trkpt lat="47.91477" lon="6.99257">
        <ele>659</ele>
        <time>2013-10-03T15:13:33Z</time>
      </trkpt>
      <trkpt lat="47.91482" lon="6.99245">
        <ele>649</ele>
        <time>2013-10-03T15:13:43Z</time>
      </trkpt>
      <trkpt lat="47.91491" lon="6.9924">
        <ele>649</ele>
        <time>2013-10-03T15:13:47Z</time>
      </trkpt>
      <trkpt lat="47.91498" lon="6.99232">
        <ele>648</ele>
        <time>2013-10-03T15:13:54Z</time>
      </trkpt>
      <trkpt lat="47.91506" lon="6.99225">
        <ele>644</ele>
        <time>2013-10-03T15:14:17Z</time>
      </trkpt>
      <trkpt lat="47.91534" lon="6.99208">
        <ele>640</ele>
        <time>2013-10-03T15:14:33Z</time>
      </trkpt>
      <trkpt lat="47.91542" lon="6.99201">
        <ele>639</ele>
        <time>2013-10-03T15:14:43Z</time>
      </trkpt>
      <trkpt lat="47.9155" lon="6.99194">
        <ele>638</ele>
        <time>2013-10-03T15:14:50Z</time>
      </trkpt>
      <trkpt lat="47.91541" lon="6.99194">
        <ele>638</ele>
        <time>2013-10-03T15:15:22Z</time>
      </trkpt>
      <trkpt lat="47.91521" lon="6.99193">
        <ele>637</ele>
        <time>2013-10-03T15:15:34Z</time>
      </trkpt>
      <trkpt lat="47.91527" lon="6.99181">
        <ele>636</ele>
        <time>2013-10-03T15:15:55Z</time>
      </trkpt>
      <trkpt lat="47.91535" lon="6.99174">
        <ele>635</ele>
        <time>2013-10-03T15:16:06Z</time>
      </trkpt>
      <trkpt lat="47.91545" lon="6.99176">
        <ele>635</ele>
        <time>2013-10-03T15:16:12Z</time>
      </trkpt>
      <trkpt lat="47.91564" lon="6.99168">
        <ele>632</ele>
        <time>2013-10-03T15:16:30Z</time>
      </trkpt>
      <trkpt lat="47.9157" lon="6.99155">
        <ele>623</ele>
        <time>2013-10-03T15:16:40Z</time>
      </trkpt>
      <trkpt lat="47.91583" lon="6.99132">
        <ele>621</ele>
        <time>2013-10-03T15:17:29Z</time>
      </trkpt>
      <trkpt lat="47.91592" lon="6.99128">
        <ele>613</ele>
        <time>2013-10-03T15:17:38Z</time>
      </trkpt>
      <trkpt lat="47.916" lon="6.99118">
        <ele>611</ele>
        <time>2013-10-03T15:17:56Z</time>
      </trkpt>
      <trkpt lat="47.91608" lon="6.99111">
        <ele>610</ele>
        <time>2013-10-03T15:18:00Z</time>
      </trkpt>
      <trkpt lat="47.91617" lon="6.99109">
        <ele>609</ele>
        <time>2013-10-03T15:18:06Z</time>
      </trkpt>
      <trkpt lat="47.91627" lon="6.99103">
        <ele>608</ele>
        <time>2013-10-03T15:18:13Z</time>
      </trkpt>
      <trkpt lat="47.91642" lon="6.9909">
        <ele>605</ele>
        <time>2013-10-03T15:18:30Z</time>
      </trkpt>
      <trkpt lat="47.91652" lon="6.99073">
        <ele>596</ele>
        <time>2013-10-03T15:19:10Z</time>
      </trkpt>
      <trkpt lat="47.91643" lon="6.99067">
        <ele>596</ele>
        <time>2013-10-03T15:19:16Z</time>
      </trkpt>
      <trkpt lat="47.91628" lon="6.99031">
        <ele>595</ele>
        <time>2013-10-03T15:19:35Z</time>
      </trkpt>
      <trkpt lat="47.91632" lon="6.99004">
        <ele>594</ele>
        <time>2013-10-03T15:19:47Z</time>
      </trkpt>
      <trkpt lat="47.91624" lon="6.98998">
        <ele>589</ele>
        <time>2013-10-03T15:20:50Z</time>
      </trkpt>
      <trkpt lat="47.9162" lon="6.98985">
        <ele>589</ele>
        <time>2013-10-03T15:20:58Z</time>
      </trkpt>
      <trkpt lat="47.91613" lon="6.98976">
        <ele>589</ele>
        <time>2013-10-03T15:22:04Z</time>
      </trkpt>
      <trkpt lat="47.91608" lon="6.98962">
        <ele>588</ele>
        <time>2013-10-03T15:22:15Z</time>
      </trkpt>
      <trkpt lat="47.9161" lon="6.98947">
        <ele>588</ele>
        <time>2013-10-03T15:22:32Z</time>
      </trkpt>
      <trkpt lat="47.91617" lon="6.9892">
        <ele>587</ele>
        <time>2013-10-03T15:22:45Z</time>
      </trkpt>
      <trkpt lat="47.91618" lon="6.98893">
        <ele>583</ele>
        <time>2013-10-03T15:23:06Z</time>
      </trkpt>
      <trkpt lat="47.91626" lon="6.98883">
        <ele>583</ele>
        <time>2013-10-03T15:23:13Z</time>
      </trkpt>
      <trkpt lat="47.91634" lon="6.98856">
        <ele>582</ele>
        <time>2013-10-03T15:23:29Z</time>
      </trkpt>
      <trkpt lat="47.91634" lon="6.98828">
        <ele>578</ele>
        <time>2013-10-03T15:23:46Z</time>
      </trkpt>
      <trkpt lat="47.91634" lon="6.98813">
        <ele>577</ele>
        <time>2013-10-03T15:23:56Z</time>
      </trkpt>
      <trkpt lat="47.91638" lon="6.98798">
        <ele>577</ele>
        <time>2013-10-03T15:24:12Z</time>
      </trkpt>
      <trkpt lat="47.9164" lon="6.98773">
        <ele>576</ele>
        <time>2013-10-03T15:24:24Z</time>
      </trkpt>
      <trkpt lat="47.91639" lon="6.98759">
        <ele>576</ele>
        <time>2013-10-03T15:24:31Z</time>
      </trkpt>
      <trkpt lat="47.91637" lon="6.98732">
        <ele>570</ele>
        <time>2013-10-03T15:24:46Z</time>
      </trkpt>
      <trkpt lat="47.91627" lon="6.98709">
        <ele>568</ele>
        <time>2013-10-03T15:25:03Z</time>
      </trkpt>
      <trkpt lat="47.91615" lon="6.98686">
        <ele>565</ele>
        <time>2013-10-03T15:25:20Z</time>
      </trkpt>
      <trkpt lat="47.91612" lon="6.98673">
        <ele>564</ele>
        <time>2013-10-03T15:25:29Z</time>
      </trkpt>
      <trkpt lat="47.91614" lon="6.98644">
        <ele>560</ele>
        <time>2013-10-03T15:25:46Z</time>
      </trkpt>
      <trkpt lat="47.9161" lon="6.98631">
        <ele>560</ele>
        <time>2013-10-03T15:25:58Z</time>
      </trkpt>
      <trkpt lat="47.91602" lon="6.98606">
        <ele>557</ele>
        <time>2013-10-03T15:26:14Z</time>
      </trkpt>
      <trkpt lat="47.91591" lon="6.98583">
        <ele>550</ele>
        <time>2013-10-03T15:26:31Z</time>
      </trkpt>
      <trkpt lat="47.91584" lon="6.98573">
        <ele>550</ele>
        <time>2013-10-03T15:26:53Z</time>
      </trkpt>
      <trkpt lat="47.91586" lon="6.98559">
        <ele>553</ele>
        <time>2013-10-03T15:27:00Z</time>
      </trkpt>
      <trkpt lat="47.91583" lon="6.98531">
        <ele>544</ele>
        <time>2013-10-03T15:27:14Z</time>
      </trkpt>
      <trkpt lat="47.91579" lon="6.98502">
        <ele>543</ele>
        <time>2013-10-03T15:27:28Z</time>
      </trkpt>
      <trkpt lat="47.91575" lon="6.98475">
        <ele>537</ele>
        <time>2013-10-03T15:27:42Z</time>
      </trkpt>
      <trkpt lat="47.9157" lon="6.98449">
        <ele>536</ele>
        <time>2013-10-03T15:27:59Z</time>
      </trkpt>
      <trkpt lat="47.91566" lon="6.98421">
        <ele>535</ele>
        <time>2013-10-03T15:28:12Z</time>
      </trkpt>
      <trkpt lat="47.91568" lon="6.98393">
        <ele>531</ele>
        <time>2013-10-03T15:28:29Z</time>
      </trkpt>
      <trkpt lat="47.91564" lon="6.98366">
        <ele>530</ele>
        <time>2013-10-03T15:28:45Z</time>
      </trkpt>
      <trkpt lat="47.91562" lon="6.98339">
        <ele>530</ele>
        <time>2013-10-03T15:29:01Z</time>
      </trkpt>
      <trkpt lat="47.91555" lon="6.98311">
        <ele>524</ele>
        <time>2013-10-03T15:29:18Z</time>
      </trkpt>
      <trkpt lat="47.91548" lon="6.98284">
        <ele>522</ele>
        <time>2013-10-03T15:29:35Z</time>
      </trkpt>
      <trkpt lat="47.91543" lon="6.98273">
        <ele>521</ele>
        <time>2013-10-03T15:29:47Z</time>
      </trkpt>
      <trkpt lat="47.91529" lon="6.9825">
        <ele>519</ele>
        <time>2013-10-03T15:29:59Z</time>
      </trkpt>
      <trkpt lat="47.91523" lon="6.98239">
        <ele>514</ele>
        <time>2013-10-03T15:30:08Z</time>
      </trkpt>
      <trkpt lat="47.91511" lon="6.98217">
        <ele>514</ele>
        <time>2013-10-03T15:30:25Z</time>
      </trkpt>
      <trkpt lat="47.91508" lon="6.98204">
        <ele>513</ele>
        <time>2013-10-03T15:30:34Z</time>
      </trkpt>
      <trkpt lat="47.91494" lon="6.98184">
        <ele>506</ele>
        <time>2013-10-03T15:30:51Z</time>
      </trkpt>
      <trkpt lat="47.9148" lon="6.98162">
        <ele>505</ele>
        <time>2013-10-03T15:31:07Z</time>
      </trkpt>
      <trkpt lat="47.9147" lon="6.98136">
        <ele>505</ele>
        <time>2013-10-03T15:31:25Z</time>
      </trkpt>
      <trkpt lat="47.91466" lon="6.98124">
        <ele>505</ele>
        <time>2013-10-03T15:31:34Z</time>
      </trkpt>
      <trkpt lat="47.91458" lon="6.98099">
        <ele>504</ele>
        <time>2013-10-03T15:31:47Z</time>
      </trkpt>
      <trkpt lat="47.91454" lon="6.98087">
        <ele>504</ele>
        <time>2013-10-03T15:31:55Z</time>
      </trkpt>
      <trkpt lat="47.91447" lon="6.98078">
        <ele>505</ele>
        <time>2013-10-03T15:32:13Z</time>
      </trkpt>
      <trkpt lat="47.91438" lon="6.98076">
        <ele>504</ele>
        <time>2013-10-03T15:32:27Z</time>
      </trkpt>
      <trkpt lat="47.91429" lon="6.9807">
        <ele>503</ele>
        <time>2013-10-03T15:32:39Z</time>
      </trkpt>
      <trkpt lat="47.91422" lon="6.98062">
        <ele>503</ele>
        <time>2013-10-03T15:32:49Z</time>
      </trkpt>
      <trkpt lat="47.91412" lon="6.9806">
        <ele>496</ele>
        <time>2013-10-03T15:33:00Z</time>
      </trkpt>
      <trkpt lat="47.91404" lon="6.98057">
        <ele>495</ele>
        <time>2013-10-03T15:33:10Z</time>
      </trkpt>
      <trkpt lat="47.91397" lon="6.98047">
        <ele>495</ele>
        <time>2013-10-03T15:33:33Z</time>
      </trkpt>
      <trkpt lat="47.91387" lon="6.98043">
        <ele>494</ele>
        <time>2013-10-03T15:33:43Z</time>
      </trkpt>
      <trkpt lat="47.91378" lon="6.98038">
        <ele>493</ele>
        <time>2013-10-03T15:33:55Z</time>
      </trkpt>
      <trkpt lat="47.91368" lon="6.98036">
        <ele>493</ele>
        <time>2013-10-03T15:34:03Z</time>
      </trkpt>
      <trkpt lat="47.91358" lon="6.98036">
        <ele>492</ele>
        <time>2013-10-03T15:34:14Z</time>
      </trkpt>
      <trkpt lat="47.91341" lon="6.98022">
        <ele>490</ele>
        <time>2013-10-03T15:34:33Z</time>
      </trkpt>
      <trkpt lat="47.91334" lon="6.98012">
        <ele>488</ele>
        <time>2013-10-03T15:34:40Z</time>
      </trkpt>
      <trkpt lat="47.91325" lon="6.97987">
        <ele>484</ele>
        <time>2013-10-03T15:34:55Z</time>
      </trkpt>
      <trkpt lat="47.91319" lon="6.97974">
        <ele>483</ele>
        <time>2013-10-03T15:35:07Z</time>
      </trkpt>
      <trkpt lat="47.91319" lon="6.9796">
        <ele>483</ele>
        <time>2013-10-03T15:35:19Z</time>
      </trkpt>
      <trkpt lat="47.91307" lon="6.97937">
        <ele>482</ele>
        <time>2013-10-03T15:35:35Z</time>
      </trkpt>
      <trkpt lat="47.91295" lon="6.97917">
        <ele>482</ele>
        <time>2013-10-03T15:35:49Z</time>
      </trkpt>
      <trkpt lat="47.91288" lon="6.97908">
        <ele>479</ele>
        <time>2013-10-03T15:36:00Z</time>
      </trkpt>
      <trkpt lat="47.91283" lon="6.97897">
        <ele>479</ele>
        <time>2013-10-03T15:36:28Z</time>
      </trkpt>
      <trkpt lat="47.91278" lon="6.97884">
        <ele>478</ele>
        <time>2013-10-03T15:36:41Z</time>
      </trkpt>
      <trkpt lat="47.9127" lon="6.97874">
        <ele>478</ele>
        <time>2013-10-03T15:36:48Z</time>
      </trkpt>
      <trkpt lat="47.91259" lon="6.97852">
        <ele>477</ele>
        <time>2013-10-03T15:37:04Z</time>
      </trkpt>
      <trkpt lat="47.91247" lon="6.9783">
        <ele>476</ele>
        <time>2013-10-03T15:37:20Z</time>
      </trkpt>
      <trkpt lat="47.91233" lon="6.97811">
        <ele>476</ele>
        <time>2013-10-03T15:37:38Z</time>
      </trkpt>
      <trkpt lat="47.91225" lon="6.97785">
        <ele>475</ele>
        <time>2013-10-03T15:37:54Z</time>
      </trkpt>
      <trkpt lat="47.9122" lon="6.97774">
        <ele>475</ele>
        <time>2013-10-03T15:38:06Z</time>
      </trkpt>
      <trkpt lat="47.91216" lon="6.9776">
        <ele>475</ele>
        <time>2013-10-03T15:38:16Z</time>
      </trkpt>
      <trkpt lat="47.91204" lon="6.97737">
        <ele>472</ele>
        <time>2013-10-03T15:38:30Z</time>
      </trkpt>
      <trkpt lat="47.91199" lon="6.97725">
        <ele>472</ele>
        <time>2013-10-03T15:38:40Z</time>
      </trkpt>
      <trkpt lat="47.91191" lon="6.97715">
        <ele>471</ele>
        <time>2013-10-03T15:38:52Z</time>
      </trkpt>
      <trkpt lat="47.91184" lon="6.97706">
        <ele>471</ele>
        <time>2013-10-03T15:39:00Z</time>
      </trkpt>
      <trkpt lat="47.91179" lon="6.97693">
        <ele>471</ele>
        <time>2013-10-03T15:39:08Z</time>
      </trkpt>
      <trkpt lat="47.91159" lon="6.97683">
        <ele>469</ele>
        <time>2013-10-03T15:39:24Z</time>
      </trkpt>
      <trkpt lat="47.91146" lon="6.97672">
        <ele>468</ele>
        <time>2013-10-03T15:39:43Z</time>
      </trkpt>
      <trkpt lat="47.91148" lon="6.97686">
        <ele>469</ele>
        <time>2013-10-03T15:40:35Z</time>
      </trkpt>
      <trkpt lat="47.91138" lon="6.97684">
        <ele>469</ele>
        <time>2013-10-03T15:40:55Z</time>
      </trkpt>
      <trkpt lat="47.91131" lon="6.97677">
        <ele>468</ele>
        <time>2013-10-03T15:41:04Z</time>
      </trkpt>
      <trkpt lat="47.91123" lon="6.97668">
        <ele>468</ele>
        <time>2013-10-03T15:41:14Z</time>
      </trkpt>
      <trkpt lat="47.91115" lon="6.97661">
        <ele>466</ele>
        <time>2013-10-03T15:41:24Z</time>
      </trkpt>
      <trkpt lat="47.91112" lon="6.97647">
        <ele>466</ele>
        <time>2013-10-03T15:41:30Z</time>
      </trkpt>
      <trkpt lat="47.91105" lon="6.97636">
        <ele>466</ele>
        <time>2013-10-03T15:41:37Z</time>
      </trkpt>
      <trkpt lat="47.91099" lon="6.97624">
        <ele>466</ele>
        <time>2013-10-03T15:41:46Z</time>
      </trkpt>
      <trkpt lat="47.91086" lon="6.97602">
        <ele>466</ele>
        <time>2013-10-03T15:42:03Z</time>
      </trkpt>
      <trkpt lat="47.91069" lon="6.97588">
        <ele>465</ele>
        <time>2013-10-03T15:42:18Z</time>
      </trkpt>
      <trkpt lat="47.91061" lon="6.97582">
        <ele>465</ele>
        <time>2013-10-03T15:42:32Z</time>
      </trkpt>
      <trkpt lat="47.91052" lon="6.97587">
        <ele>465</ele>
        <time>2013-10-03T15:42:51Z</time>
      </trkpt>
    </trkseg>
  </trk>
</gpx>